<?xml version="1.0" encoding="UTF-8" standalone="no" ?>
<gpx xmlns="http://www.topografix.com/GPX/1/1" xmlns:xsi="http://www.w3.org/2001/XMLSchema-instance" xsi:schemaLocation="http://www.topografix.com/GPX/1/1 http://www.topografix.com/GPX/1/1/gpx.xsd" version="1.1" creator="VisuGPX - https://www.visugpx.com">
  <metadata>
    <name>RSPG Villard joli Pierre Beaudinard.</name>
    <desc><![CDATA[Au départ du Hameau de Villard Joli dans le Dévoluy. Prendre le chemin nord qui mne à la cabane de Pierre Beaudinard au pied de son rocher. Puis continuer sur le sentier sud jusqu\'a la cabane pastorale du vallon de Truchière et redescendre à Villard joli par le chemin qui passe pr la fontaine de l\'Adroit.]]></desc>
  </metadata>
  <trk>
    <name><![CDATA[Villard Joli Pierre Beaudinard]]></name>
    <trkseg>
      <trkpt lat="44.72894" lon="5.88738">
        <ele>1212.36</ele>
        <time>2015-11-12T08:34:14Z</time>
      </trkpt>
      <trkpt lat="44.72893" lon="5.88738">
        <ele>1216.69</ele>
        <time>2015-11-12T08:34:17Z</time>
      </trkpt>
      <trkpt lat="44.72892" lon="5.88738">
        <ele>1221.97</ele>
        <time>2015-11-12T08:34:20Z</time>
      </trkpt>
      <trkpt lat="44.72892" lon="5.88738">
        <ele>1221.97</ele>
        <time>2015-11-12T08:34:21Z</time>
      </trkpt>
      <trkpt lat="44.72892" lon="5.88738">
        <ele>1225.34</ele>
        <time>2015-11-12T08:34:24Z</time>
      </trkpt>
      <trkpt lat="44.72892" lon="5.88737">
        <ele>1228.7</ele>
        <time>2015-11-12T08:34:27Z</time>
      </trkpt>
      <trkpt lat="44.72892" lon="5.88738">
        <ele>1232.55</ele>
        <time>2015-11-12T08:34:31Z</time>
      </trkpt>
      <trkpt lat="44.72892" lon="5.88737">
        <ele>1235.43</ele>
        <time>2015-11-12T08:34:35Z</time>
      </trkpt>
      <trkpt lat="44.72893" lon="5.88736">
        <ele>1239.28</ele>
        <time>2015-11-12T08:34:40Z</time>
      </trkpt>
      <trkpt lat="44.72892" lon="5.88735">
        <ele>1242.64</ele>
        <time>2015-11-12T08:34:46Z</time>
      </trkpt>
      <trkpt lat="44.72891" lon="5.88734">
        <ele>1245.53</ele>
        <time>2015-11-12T08:34:53Z</time>
      </trkpt>
      <trkpt lat="44.72891" lon="5.88732">
        <ele>1248.89</ele>
        <time>2015-11-12T08:35:04Z</time>
      </trkpt>
      <trkpt lat="44.7289" lon="5.88734">
        <ele>1251.29</ele>
        <time>2015-11-12T08:35:23Z</time>
      </trkpt>
      <trkpt lat="44.72891" lon="5.88735">
        <ele>1252.74</ele>
        <time>2015-11-12T08:35:38Z</time>
      </trkpt>
      <trkpt lat="44.72892" lon="5.88734">
        <ele>1252.74</ele>
        <time>2015-11-12T08:35:58Z</time>
      </trkpt>
      <trkpt lat="44.72895" lon="5.88732">
        <ele>1252.74</ele>
        <time>2015-11-12T08:36:13Z</time>
      </trkpt>
      <trkpt lat="44.72897" lon="5.88734">
        <ele>1253.22</ele>
        <time>2015-11-12T08:36:24Z</time>
      </trkpt>
      <trkpt lat="44.72896" lon="5.88735">
        <ele>1253.22</ele>
        <time>2015-11-12T08:36:37Z</time>
      </trkpt>
      <trkpt lat="44.72894" lon="5.88735">
        <ele>1253.22</ele>
        <time>2015-11-12T08:36:54Z</time>
      </trkpt>
      <trkpt lat="44.72893" lon="5.88736">
        <ele>1253.22</ele>
        <time>2015-11-12T08:37:13Z</time>
      </trkpt>
      <trkpt lat="44.72894" lon="5.88735">
        <ele>1252.74</ele>
        <time>2015-11-12T08:37:46Z</time>
      </trkpt>
      <trkpt lat="44.72893" lon="5.88734">
        <ele>1253.22</ele>
        <time>2015-11-12T08:38:06Z</time>
      </trkpt>
      <trkpt lat="44.72893" lon="5.88733">
        <ele>1252.74</ele>
        <time>2015-11-12T08:38:26Z</time>
      </trkpt>
      <trkpt lat="44.72903" lon="5.88729">
        <ele>1253.22</ele>
        <time>2015-11-12T08:38:41Z</time>
      </trkpt>
      <trkpt lat="44.72911" lon="5.88737">
        <ele>1253.7</ele>
        <time>2015-11-12T08:38:55Z</time>
      </trkpt>
      <trkpt lat="44.72917" lon="5.8874">
        <ele>1254.18</ele>
        <time>2015-11-12T08:39:06Z</time>
      </trkpt>
      <trkpt lat="44.72932" lon="5.88741">
        <ele>1255.62</ele>
        <time>2015-11-12T08:39:20Z</time>
      </trkpt>
      <trkpt lat="44.72937" lon="5.88741">
        <ele>1256.1</ele>
        <time>2015-11-12T08:39:31Z</time>
      </trkpt>
      <trkpt lat="44.72938" lon="5.88741">
        <ele>1256.58</ele>
        <time>2015-11-12T08:39:33Z</time>
      </trkpt>
      <trkpt lat="44.72947" lon="5.88732">
        <ele>1257.54</ele>
        <time>2015-11-12T08:39:45Z</time>
      </trkpt>
      <trkpt lat="44.72951" lon="5.88729">
        <ele>1258.02</ele>
        <time>2015-11-12T08:39:50Z</time>
      </trkpt>
      <trkpt lat="44.72963" lon="5.88725">
        <ele>1259.46</ele>
        <time>2015-11-12T08:40:04Z</time>
      </trkpt>
      <trkpt lat="44.72975" lon="5.88718">
        <ele>1260.91</ele>
        <time>2015-11-12T08:40:18Z</time>
      </trkpt>
      <trkpt lat="44.72987" lon="5.88713">
        <ele>1261.87</ele>
        <time>2015-11-12T08:40:32Z</time>
      </trkpt>
      <trkpt lat="44.73" lon="5.88703">
        <ele>1262.83</ele>
        <time>2015-11-12T08:40:46Z</time>
      </trkpt>
      <trkpt lat="44.73011" lon="5.88695">
        <ele>1263.31</ele>
        <time>2015-11-12T08:40:59Z</time>
      </trkpt>
      <trkpt lat="44.73021" lon="5.88681">
        <ele>1263.79</ele>
        <time>2015-11-12T08:41:14Z</time>
      </trkpt>
      <trkpt lat="44.73031" lon="5.88667">
        <ele>1270.52</ele>
        <time>2015-11-12T08:41:29Z</time>
      </trkpt>
      <trkpt lat="44.73036" lon="5.8866">
        <ele>1271</ele>
        <time>2015-11-12T08:41:36Z</time>
      </trkpt>
      <trkpt lat="44.73039" lon="5.88658">
        <ele>1272.44</ele>
        <time>2015-11-12T08:41:39Z</time>
      </trkpt>
      <trkpt lat="44.73044" lon="5.88647">
        <ele>1273.88</ele>
        <time>2015-11-12T08:41:53Z</time>
      </trkpt>
      <trkpt lat="44.73045" lon="5.88646">
        <ele>1274.36</ele>
        <time>2015-11-12T08:41:54Z</time>
      </trkpt>
      <trkpt lat="44.73047" lon="5.88644">
        <ele>1274.36</ele>
        <time>2015-11-12T08:41:56Z</time>
      </trkpt>
      <trkpt lat="44.73053" lon="5.8864">
        <ele>1275.33</ele>
        <time>2015-11-12T08:42:04Z</time>
      </trkpt>
      <trkpt lat="44.73064" lon="5.88631">
        <ele>1276.77</ele>
        <time>2015-11-12T08:42:18Z</time>
      </trkpt>
      <trkpt lat="44.73073" lon="5.88625">
        <ele>1278.21</ele>
        <time>2015-11-12T08:42:30Z</time>
      </trkpt>
      <trkpt lat="44.73082" lon="5.88619">
        <ele>1279.65</ele>
        <time>2015-11-12T08:42:42Z</time>
      </trkpt>
      <trkpt lat="44.73091" lon="5.8861">
        <ele>1281.57</ele>
        <time>2015-11-12T08:42:56Z</time>
      </trkpt>
      <trkpt lat="44.73092" lon="5.88608">
        <ele>1282.06</ele>
        <time>2015-11-12T08:42:59Z</time>
      </trkpt>
      <trkpt lat="44.73103" lon="5.88596">
        <ele>1283.02</ele>
        <time>2015-11-12T08:43:14Z</time>
      </trkpt>
      <trkpt lat="44.73108" lon="5.88592">
        <ele>1283.5</ele>
        <time>2015-11-12T08:43:19Z</time>
      </trkpt>
      <trkpt lat="44.73115" lon="5.88585">
        <ele>1283.02</ele>
        <time>2015-11-12T08:43:29Z</time>
      </trkpt>
      <trkpt lat="44.73127" lon="5.88579">
        <ele>1283.02</ele>
        <time>2015-11-12T08:43:43Z</time>
      </trkpt>
      <trkpt lat="44.73143" lon="5.88573">
        <ele>1283.02</ele>
        <time>2015-11-12T08:44:00Z</time>
      </trkpt>
      <trkpt lat="44.73156" lon="5.88568">
        <ele>1283.02</ele>
        <time>2015-11-12T08:44:15Z</time>
      </trkpt>
      <trkpt lat="44.73168" lon="5.88557">
        <ele>1283.5</ele>
        <time>2015-11-12T08:44:29Z</time>
      </trkpt>
      <trkpt lat="44.73172" lon="5.88552">
        <ele>1283.98</ele>
        <time>2015-11-12T08:44:34Z</time>
      </trkpt>
      <trkpt lat="44.73174" lon="5.88551">
        <ele>1283.98</ele>
        <time>2015-11-12T08:44:36Z</time>
      </trkpt>
      <trkpt lat="44.73186" lon="5.88542">
        <ele>1284.94</ele>
        <time>2015-11-12T08:44:50Z</time>
      </trkpt>
      <trkpt lat="44.73193" lon="5.88538">
        <ele>1285.9</ele>
        <time>2015-11-12T08:44:58Z</time>
      </trkpt>
      <trkpt lat="44.73206" lon="5.88528">
        <ele>1287.34</ele>
        <time>2015-11-12T08:45:13Z</time>
      </trkpt>
      <trkpt lat="44.73216" lon="5.88521">
        <ele>1287.82</ele>
        <time>2015-11-12T08:45:25Z</time>
      </trkpt>
      <trkpt lat="44.73218" lon="5.88521">
        <ele>1288.3</ele>
        <time>2015-11-12T08:45:27Z</time>
      </trkpt>
      <trkpt lat="44.73226" lon="5.88516">
        <ele>1289.75</ele>
        <time>2015-11-12T08:45:37Z</time>
      </trkpt>
      <trkpt lat="44.73232" lon="5.88514">
        <ele>1290.71</ele>
        <time>2015-11-12T08:45:50Z</time>
      </trkpt>
      <trkpt lat="44.73236" lon="5.88517">
        <ele>1291.19</ele>
        <time>2015-11-12T08:46:03Z</time>
      </trkpt>
      <trkpt lat="44.73237" lon="5.88516">
        <ele>1291.67</ele>
        <time>2015-11-12T08:46:20Z</time>
      </trkpt>
      <trkpt lat="44.73241" lon="5.88516">
        <ele>1291.67</ele>
        <time>2015-11-12T08:46:31Z</time>
      </trkpt>
      <trkpt lat="44.73253" lon="5.88513">
        <ele>1292.15</ele>
        <time>2015-11-12T08:46:43Z</time>
      </trkpt>
      <trkpt lat="44.73256" lon="5.88512">
        <ele>1292.63</ele>
        <time>2015-11-12T08:46:46Z</time>
      </trkpt>
      <trkpt lat="44.73267" lon="5.88504">
        <ele>1291.67</ele>
        <time>2015-11-12T08:47:00Z</time>
      </trkpt>
      <trkpt lat="44.7327" lon="5.88502">
        <ele>1291.67</ele>
        <time>2015-11-12T08:47:03Z</time>
      </trkpt>
      <trkpt lat="44.73283" lon="5.88494">
        <ele>1290.71</ele>
        <time>2015-11-12T08:47:18Z</time>
      </trkpt>
      <trkpt lat="44.73286" lon="5.88493">
        <ele>1290.23</ele>
        <time>2015-11-12T08:47:22Z</time>
      </trkpt>
      <trkpt lat="44.73299" lon="5.88484">
        <ele>1288.78</ele>
        <time>2015-11-12T08:47:37Z</time>
      </trkpt>
      <trkpt lat="44.73313" lon="5.88474">
        <ele>1286.86</ele>
        <time>2015-11-12T08:47:54Z</time>
      </trkpt>
      <trkpt lat="44.73321" lon="5.88461">
        <ele>1284.94</ele>
        <time>2015-11-12T08:48:08Z</time>
      </trkpt>
      <trkpt lat="44.73321" lon="5.88461">
        <ele>1284.94</ele>
        <time>2015-11-12T08:48:09Z</time>
      </trkpt>
      <trkpt lat="44.73331" lon="5.88453">
        <ele>1282.54</ele>
        <time>2015-11-12T08:48:23Z</time>
      </trkpt>
      <trkpt lat="44.73344" lon="5.88445">
        <ele>1280.61</ele>
        <time>2015-11-12T08:48:40Z</time>
      </trkpt>
      <trkpt lat="44.73355" lon="5.8844">
        <ele>1279.17</ele>
        <time>2015-11-12T08:48:54Z</time>
      </trkpt>
      <trkpt lat="44.73366" lon="5.8843">
        <ele>1277.25</ele>
        <time>2015-11-12T08:49:10Z</time>
      </trkpt>
      <trkpt lat="44.73375" lon="5.88416">
        <ele>1275.33</ele>
        <time>2015-11-12T08:49:25Z</time>
      </trkpt>
      <trkpt lat="44.73386" lon="5.88401">
        <ele>1273.4</ele>
        <time>2015-11-12T08:49:41Z</time>
      </trkpt>
      <trkpt lat="44.73396" lon="5.88388">
        <ele>1272.92</ele>
        <time>2015-11-12T08:49:55Z</time>
      </trkpt>
      <trkpt lat="44.73403" lon="5.88376">
        <ele>1273.88</ele>
        <time>2015-11-12T08:50:08Z</time>
      </trkpt>
      <trkpt lat="44.73406" lon="5.88371">
        <ele>1272.92</ele>
        <time>2015-11-12T08:50:13Z</time>
      </trkpt>
      <trkpt lat="44.73415" lon="5.88353">
        <ele>1272.92</ele>
        <time>2015-11-12T08:50:28Z</time>
      </trkpt>
      <trkpt lat="44.73424" lon="5.88332">
        <ele>1273.88</ele>
        <time>2015-11-12T08:50:45Z</time>
      </trkpt>
      <trkpt lat="44.73428" lon="5.88323">
        <ele>1273.88</ele>
        <time>2015-11-12T08:50:53Z</time>
      </trkpt>
      <trkpt lat="44.73435" lon="5.88309">
        <ele>1273.4</ele>
        <time>2015-11-12T08:51:09Z</time>
      </trkpt>
      <trkpt lat="44.73439" lon="5.88297">
        <ele>1272.92</ele>
        <time>2015-11-12T08:51:21Z</time>
      </trkpt>
      <trkpt lat="44.73442" lon="5.8829">
        <ele>1272.92</ele>
        <time>2015-11-12T08:51:28Z</time>
      </trkpt>
      <trkpt lat="44.73447" lon="5.88279">
        <ele>1272.44</ele>
        <time>2015-11-12T08:51:41Z</time>
      </trkpt>
      <trkpt lat="44.73457" lon="5.8826">
        <ele>1272.44</ele>
        <time>2015-11-12T08:51:57Z</time>
      </trkpt>
      <trkpt lat="44.73467" lon="5.88246">
        <ele>1271.96</ele>
        <time>2015-11-12T08:52:13Z</time>
      </trkpt>
      <trkpt lat="44.73477" lon="5.88234">
        <ele>1271</ele>
        <time>2015-11-12T08:52:27Z</time>
      </trkpt>
      <trkpt lat="44.7349" lon="5.88229">
        <ele>1269.56</ele>
        <time>2015-11-12T08:52:42Z</time>
      </trkpt>
      <trkpt lat="44.73496" lon="5.88228">
        <ele>1269.08</ele>
        <time>2015-11-12T08:52:49Z</time>
      </trkpt>
      <trkpt lat="44.73505" lon="5.88215">
        <ele>1269.56</ele>
        <time>2015-11-12T08:53:03Z</time>
      </trkpt>
      <trkpt lat="44.73518" lon="5.88205">
        <ele>1270.52</ele>
        <time>2015-11-12T08:53:20Z</time>
      </trkpt>
      <trkpt lat="44.73528" lon="5.88196">
        <ele>1271.96</ele>
        <time>2015-11-12T08:53:35Z</time>
      </trkpt>
      <trkpt lat="44.73536" lon="5.88186">
        <ele>1273.88</ele>
        <time>2015-11-12T08:53:48Z</time>
      </trkpt>
      <trkpt lat="44.7354" lon="5.88172">
        <ele>1275.81</ele>
        <time>2015-11-12T08:54:01Z</time>
      </trkpt>
      <trkpt lat="44.73541" lon="5.88168">
        <ele>1275.81</ele>
        <time>2015-11-12T08:54:05Z</time>
      </trkpt>
      <trkpt lat="44.73545" lon="5.88152">
        <ele>1277.25</ele>
        <time>2015-11-12T08:54:18Z</time>
      </trkpt>
      <trkpt lat="44.73554" lon="5.8814">
        <ele>1276.77</ele>
        <time>2015-11-12T08:54:33Z</time>
      </trkpt>
      <trkpt lat="44.73558" lon="5.88136">
        <ele>1276.77</ele>
        <time>2015-11-12T08:54:38Z</time>
      </trkpt>
      <trkpt lat="44.73566" lon="5.88134">
        <ele>1277.25</ele>
        <time>2015-11-12T08:54:47Z</time>
      </trkpt>
      <trkpt lat="44.7357" lon="5.88135">
        <ele>1277.73</ele>
        <time>2015-11-12T08:54:51Z</time>
      </trkpt>
      <trkpt lat="44.73582" lon="5.88134">
        <ele>1278.69</ele>
        <time>2015-11-12T08:55:04Z</time>
      </trkpt>
      <trkpt lat="44.73596" lon="5.88135">
        <ele>1280.13</ele>
        <time>2015-11-12T08:55:20Z</time>
      </trkpt>
      <trkpt lat="44.73608" lon="5.88135">
        <ele>1281.57</ele>
        <time>2015-11-12T08:55:34Z</time>
      </trkpt>
      <trkpt lat="44.73621" lon="5.88131">
        <ele>1282.06</ele>
        <time>2015-11-12T08:55:49Z</time>
      </trkpt>
      <trkpt lat="44.73634" lon="5.88125">
        <ele>1281.57</ele>
        <time>2015-11-12T08:56:05Z</time>
      </trkpt>
      <trkpt lat="44.7365" lon="5.8812">
        <ele>1282.54</ele>
        <time>2015-11-12T08:56:23Z</time>
      </trkpt>
      <trkpt lat="44.73663" lon="5.88116">
        <ele>1283.5</ele>
        <time>2015-11-12T08:56:38Z</time>
      </trkpt>
      <trkpt lat="44.73668" lon="5.88114">
        <ele>1284.46</ele>
        <time>2015-11-12T08:56:45Z</time>
      </trkpt>
      <trkpt lat="44.7368" lon="5.88114">
        <ele>1285.9</ele>
        <time>2015-11-12T08:57:00Z</time>
      </trkpt>
      <trkpt lat="44.73688" lon="5.88111">
        <ele>1286.38</ele>
        <time>2015-11-12T08:57:13Z</time>
      </trkpt>
      <trkpt lat="44.73699" lon="5.88104">
        <ele>1287.34</ele>
        <time>2015-11-12T08:57:27Z</time>
      </trkpt>
      <trkpt lat="44.73703" lon="5.88098">
        <ele>1288.3</ele>
        <time>2015-11-12T08:57:35Z</time>
      </trkpt>
      <trkpt lat="44.73707" lon="5.88093">
        <ele>1289.27</ele>
        <time>2015-11-12T08:57:43Z</time>
      </trkpt>
      <trkpt lat="44.73714" lon="5.88085">
        <ele>1290.71</ele>
        <time>2015-11-12T08:57:56Z</time>
      </trkpt>
      <trkpt lat="44.7372" lon="5.88073">
        <ele>1292.63</ele>
        <time>2015-11-12T08:58:10Z</time>
      </trkpt>
      <trkpt lat="44.73725" lon="5.88057">
        <ele>1294.55</ele>
        <time>2015-11-12T08:58:25Z</time>
      </trkpt>
      <trkpt lat="44.73734" lon="5.88051">
        <ele>1296.48</ele>
        <time>2015-11-12T08:58:39Z</time>
      </trkpt>
      <trkpt lat="44.73737" lon="5.88042">
        <ele>1297.92</ele>
        <time>2015-11-12T08:58:52Z</time>
      </trkpt>
      <trkpt lat="44.73742" lon="5.8803">
        <ele>1300.32</ele>
        <time>2015-11-12T08:59:10Z</time>
      </trkpt>
      <trkpt lat="44.7375" lon="5.88024">
        <ele>1301.76</ele>
        <time>2015-11-12T08:59:23Z</time>
      </trkpt>
      <trkpt lat="44.73759" lon="5.8802">
        <ele>1303.69</ele>
        <time>2015-11-12T08:59:35Z</time>
      </trkpt>
      <trkpt lat="44.73761" lon="5.8802">
        <ele>1303.69</ele>
        <time>2015-11-12T08:59:50Z</time>
      </trkpt>
      <trkpt lat="44.73764" lon="5.8802">
        <ele>1303.2</ele>
        <time>2015-11-12T09:00:02Z</time>
      </trkpt>
      <trkpt lat="44.73764" lon="5.88019">
        <ele>1303.2</ele>
        <time>2015-11-12T09:00:27Z</time>
      </trkpt>
      <trkpt lat="44.73764" lon="5.8802">
        <ele>1303.2</ele>
        <time>2015-11-12T09:00:47Z</time>
      </trkpt>
      <trkpt lat="44.73764" lon="5.88019">
        <ele>1303.2</ele>
        <time>2015-11-12T09:01:13Z</time>
      </trkpt>
      <trkpt lat="44.73763" lon="5.8802">
        <ele>1304.65</ele>
        <time>2015-11-12T09:01:27Z</time>
      </trkpt>
      <trkpt lat="44.73762" lon="5.88021">
        <ele>1304.17</ele>
        <time>2015-11-12T09:01:43Z</time>
      </trkpt>
      <trkpt lat="44.73763" lon="5.8802">
        <ele>1304.17</ele>
        <time>2015-11-12T09:02:06Z</time>
      </trkpt>
      <trkpt lat="44.73764" lon="5.8802">
        <ele>1304.17</ele>
        <time>2015-11-12T09:02:27Z</time>
      </trkpt>
      <trkpt lat="44.73764" lon="5.8802">
        <ele>1304.17</ele>
        <time>2015-11-12T09:02:43Z</time>
      </trkpt>
      <trkpt lat="44.73765" lon="5.88019">
        <ele>1304.65</ele>
        <time>2015-11-12T09:03:01Z</time>
      </trkpt>
      <trkpt lat="44.73765" lon="5.88018">
        <ele>1304.65</ele>
        <time>2015-11-12T09:03:12Z</time>
      </trkpt>
      <trkpt lat="44.73764" lon="5.88018">
        <ele>1304.65</ele>
        <time>2015-11-12T09:03:33Z</time>
      </trkpt>
      <trkpt lat="44.73765" lon="5.88017">
        <ele>1304.65</ele>
        <time>2015-11-12T09:03:43Z</time>
      </trkpt>
      <trkpt lat="44.73765" lon="5.88015">
        <ele>1304.65</ele>
        <time>2015-11-12T09:04:01Z</time>
      </trkpt>
      <trkpt lat="44.73765" lon="5.88017">
        <ele>1304.65</ele>
        <time>2015-11-12T09:04:25Z</time>
      </trkpt>
      <trkpt lat="44.73765" lon="5.88017">
        <ele>1304.65</ele>
        <time>2015-11-12T09:04:44Z</time>
      </trkpt>
      <trkpt lat="44.73766" lon="5.88017">
        <ele>1304.65</ele>
        <time>2015-11-12T09:05:03Z</time>
      </trkpt>
      <trkpt lat="44.73766" lon="5.88015">
        <ele>1304.65</ele>
        <time>2015-11-12T09:05:23Z</time>
      </trkpt>
      <trkpt lat="44.73765" lon="5.88018">
        <ele>1305.13</ele>
        <time>2015-11-12T09:05:47Z</time>
      </trkpt>
      <trkpt lat="44.73765" lon="5.88018">
        <ele>1304.65</ele>
        <time>2015-11-12T09:06:14Z</time>
      </trkpt>
      <trkpt lat="44.73765" lon="5.88018">
        <ele>1304.65</ele>
        <time>2015-11-12T09:06:40Z</time>
      </trkpt>
      <trkpt lat="44.73769" lon="5.8801">
        <ele>1305.61</ele>
        <time>2015-11-12T09:06:53Z</time>
      </trkpt>
      <trkpt lat="44.73775" lon="5.88004">
        <ele>1307.05</ele>
        <time>2015-11-12T09:07:06Z</time>
      </trkpt>
      <trkpt lat="44.73784" lon="5.88">
        <ele>1308.97</ele>
        <time>2015-11-12T09:07:21Z</time>
      </trkpt>
      <trkpt lat="44.7379" lon="5.8799">
        <ele>1311.38</ele>
        <time>2015-11-12T09:07:35Z</time>
      </trkpt>
      <trkpt lat="44.73793" lon="5.87985">
        <ele>1311.86</ele>
        <time>2015-11-12T09:07:43Z</time>
      </trkpt>
      <trkpt lat="44.73798" lon="5.87977">
        <ele>1313.78</ele>
        <time>2015-11-12T09:07:56Z</time>
      </trkpt>
      <trkpt lat="44.73801" lon="5.87964">
        <ele>1315.7</ele>
        <time>2015-11-12T09:08:10Z</time>
      </trkpt>
      <trkpt lat="44.73803" lon="5.87951">
        <ele>1318.59</ele>
        <time>2015-11-12T09:08:24Z</time>
      </trkpt>
      <trkpt lat="44.73804" lon="5.87943">
        <ele>1320.03</ele>
        <time>2015-11-12T09:08:36Z</time>
      </trkpt>
      <trkpt lat="44.73804" lon="5.87931">
        <ele>1321.95</ele>
        <time>2015-11-12T09:08:49Z</time>
      </trkpt>
      <trkpt lat="44.73804" lon="5.87929">
        <ele>1322.43</ele>
        <time>2015-11-12T09:08:51Z</time>
      </trkpt>
      <trkpt lat="44.73803" lon="5.87926">
        <ele>1322.43</ele>
        <time>2015-11-12T09:08:54Z</time>
      </trkpt>
      <trkpt lat="44.73801" lon="5.87919">
        <ele>1323.87</ele>
        <time>2015-11-12T09:09:05Z</time>
      </trkpt>
      <trkpt lat="44.738" lon="5.87915">
        <ele>1324.35</ele>
        <time>2015-11-12T09:09:08Z</time>
      </trkpt>
      <trkpt lat="44.73794" lon="5.87899">
        <ele>1325.31</ele>
        <time>2015-11-12T09:09:24Z</time>
      </trkpt>
      <trkpt lat="44.7379" lon="5.87887">
        <ele>1326.76</ele>
        <time>2015-11-12T09:09:37Z</time>
      </trkpt>
      <trkpt lat="44.73787" lon="5.87874">
        <ele>1328.2</ele>
        <time>2015-11-12T09:09:50Z</time>
      </trkpt>
      <trkpt lat="44.73786" lon="5.87863">
        <ele>1329.16</ele>
        <time>2015-11-12T09:10:03Z</time>
      </trkpt>
      <trkpt lat="44.73786" lon="5.87867">
        <ele>1329.16</ele>
        <time>2015-11-12T09:10:17Z</time>
      </trkpt>
      <trkpt lat="44.73787" lon="5.87863">
        <ele>1329.16</ele>
        <time>2015-11-12T09:10:26Z</time>
      </trkpt>
      <trkpt lat="44.73793" lon="5.87853">
        <ele>1331.08</ele>
        <time>2015-11-12T09:10:38Z</time>
      </trkpt>
      <trkpt lat="44.738" lon="5.87841">
        <ele>1333.01</ele>
        <time>2015-11-12T09:10:53Z</time>
      </trkpt>
      <trkpt lat="44.73805" lon="5.87833">
        <ele>1334.93</ele>
        <time>2015-11-12T09:11:05Z</time>
      </trkpt>
      <trkpt lat="44.73807" lon="5.87829">
        <ele>1335.89</ele>
        <time>2015-11-12T09:11:10Z</time>
      </trkpt>
      <trkpt lat="44.73816" lon="5.87821">
        <ele>1337.81</ele>
        <time>2015-11-12T09:11:24Z</time>
      </trkpt>
      <trkpt lat="44.7382" lon="5.87819">
        <ele>1338.29</ele>
        <time>2015-11-12T09:11:33Z</time>
      </trkpt>
      <trkpt lat="44.73831" lon="5.87815">
        <ele>1339.73</ele>
        <time>2015-11-12T09:11:48Z</time>
      </trkpt>
      <trkpt lat="44.73842" lon="5.8782">
        <ele>1340.22</ele>
        <time>2015-11-12T09:12:02Z</time>
      </trkpt>
      <trkpt lat="44.7385" lon="5.87823">
        <ele>1341.18</ele>
        <time>2015-11-12T09:12:15Z</time>
      </trkpt>
      <trkpt lat="44.73862" lon="5.87825">
        <ele>1341.66</ele>
        <time>2015-11-12T09:12:30Z</time>
      </trkpt>
      <trkpt lat="44.73868" lon="5.87825">
        <ele>1342.14</ele>
        <time>2015-11-12T09:12:42Z</time>
      </trkpt>
      <trkpt lat="44.73877" lon="5.87825">
        <ele>1343.58</ele>
        <time>2015-11-12T09:12:55Z</time>
      </trkpt>
      <trkpt lat="44.73885" lon="5.87815">
        <ele>1345.5</ele>
        <time>2015-11-12T09:13:10Z</time>
      </trkpt>
      <trkpt lat="44.73892" lon="5.87809">
        <ele>1347.43</ele>
        <time>2015-11-12T09:13:24Z</time>
      </trkpt>
      <trkpt lat="44.73898" lon="5.87819">
        <ele>1347.43</ele>
        <time>2015-11-12T09:13:38Z</time>
      </trkpt>
      <trkpt lat="44.73901" lon="5.87822">
        <ele>1347.43</ele>
        <time>2015-11-12T09:13:43Z</time>
      </trkpt>
      <trkpt lat="44.73906" lon="5.87831">
        <ele>1345.5</ele>
        <time>2015-11-12T09:13:56Z</time>
      </trkpt>
      <trkpt lat="44.73917" lon="5.8782">
        <ele>1347.91</ele>
        <time>2015-11-12T09:14:11Z</time>
      </trkpt>
      <trkpt lat="44.73919" lon="5.87808">
        <ele>1350.31</ele>
        <time>2015-11-12T09:14:25Z</time>
      </trkpt>
      <trkpt lat="44.73919" lon="5.87807">
        <ele>1350.31</ele>
        <time>2015-11-12T09:14:26Z</time>
      </trkpt>
      <trkpt lat="44.73918" lon="5.87793">
        <ele>1352.23</ele>
        <time>2015-11-12T09:14:38Z</time>
      </trkpt>
      <trkpt lat="44.73916" lon="5.87784">
        <ele>1354.15</ele>
        <time>2015-11-12T09:14:50Z</time>
      </trkpt>
      <trkpt lat="44.73911" lon="5.87773">
        <ele>1356.08</ele>
        <time>2015-11-12T09:15:05Z</time>
      </trkpt>
      <trkpt lat="44.73907" lon="5.87767">
        <ele>1358</ele>
        <time>2015-11-12T09:15:16Z</time>
      </trkpt>
      <trkpt lat="44.73903" lon="5.87756">
        <ele>1359.44</ele>
        <time>2015-11-12T09:15:28Z</time>
      </trkpt>
      <trkpt lat="44.73901" lon="5.87744">
        <ele>1361.84</ele>
        <time>2015-11-12T09:15:44Z</time>
      </trkpt>
      <trkpt lat="44.73901" lon="5.87734">
        <ele>1363.77</ele>
        <time>2015-11-12T09:16:00Z</time>
      </trkpt>
      <trkpt lat="44.739" lon="5.87722">
        <ele>1365.69</ele>
        <time>2015-11-12T09:16:13Z</time>
      </trkpt>
      <trkpt lat="44.73905" lon="5.87716">
        <ele>1367.61</ele>
        <time>2015-11-12T09:16:26Z</time>
      </trkpt>
      <trkpt lat="44.73911" lon="5.87712">
        <ele>1369.05</ele>
        <time>2015-11-12T09:16:37Z</time>
      </trkpt>
      <trkpt lat="44.73916" lon="5.87706">
        <ele>1370.98</ele>
        <time>2015-11-12T09:16:52Z</time>
      </trkpt>
      <trkpt lat="44.73922" lon="5.87702">
        <ele>1372.42</ele>
        <time>2015-11-12T09:17:02Z</time>
      </trkpt>
      <trkpt lat="44.73927" lon="5.87696">
        <ele>1373.86</ele>
        <time>2015-11-12T09:17:13Z</time>
      </trkpt>
      <trkpt lat="44.73932" lon="5.8769">
        <ele>1375.78</ele>
        <time>2015-11-12T09:17:29Z</time>
      </trkpt>
      <trkpt lat="44.7394" lon="5.87686">
        <ele>1377.71</ele>
        <time>2015-11-12T09:17:42Z</time>
      </trkpt>
      <trkpt lat="44.73945" lon="5.87678">
        <ele>1379.63</ele>
        <time>2015-11-12T09:17:55Z</time>
      </trkpt>
      <trkpt lat="44.7395" lon="5.8767">
        <ele>1381.07</ele>
        <time>2015-11-12T09:18:08Z</time>
      </trkpt>
      <trkpt lat="44.73956" lon="5.87661">
        <ele>1382.99</ele>
        <time>2015-11-12T09:18:22Z</time>
      </trkpt>
      <trkpt lat="44.73955" lon="5.87652">
        <ele>1384.92</ele>
        <time>2015-11-12T09:18:35Z</time>
      </trkpt>
      <trkpt lat="44.73955" lon="5.8764">
        <ele>1386.36</ele>
        <time>2015-11-12T09:18:48Z</time>
      </trkpt>
      <trkpt lat="44.73959" lon="5.87629">
        <ele>1388.76</ele>
        <time>2015-11-12T09:19:02Z</time>
      </trkpt>
      <trkpt lat="44.73961" lon="5.8762">
        <ele>1389.72</ele>
        <time>2015-11-12T09:19:15Z</time>
      </trkpt>
      <trkpt lat="44.73967" lon="5.87609">
        <ele>1391.65</ele>
        <time>2015-11-12T09:19:29Z</time>
      </trkpt>
      <trkpt lat="44.7397" lon="5.87603">
        <ele>1393.09</ele>
        <time>2015-11-12T09:19:43Z</time>
      </trkpt>
      <trkpt lat="44.73969" lon="5.87603">
        <ele>1393.09</ele>
        <time>2015-11-12T09:20:02Z</time>
      </trkpt>
      <trkpt lat="44.73969" lon="5.87603">
        <ele>1393.09</ele>
        <time>2015-11-12T09:20:05Z</time>
      </trkpt>
      <trkpt lat="44.73973" lon="5.87601">
        <ele>1393.09</ele>
        <time>2015-11-12T09:20:15Z</time>
      </trkpt>
      <trkpt lat="44.73975" lon="5.87599">
        <ele>1393.09</ele>
        <time>2015-11-12T09:20:36Z</time>
      </trkpt>
      <trkpt lat="44.73979" lon="5.87599">
        <ele>1393.09</ele>
        <time>2015-11-12T09:21:00Z</time>
      </trkpt>
      <trkpt lat="44.73977" lon="5.87601">
        <ele>1393.09</ele>
        <time>2015-11-12T09:21:31Z</time>
      </trkpt>
      <trkpt lat="44.73977" lon="5.876">
        <ele>1393.09</ele>
        <time>2015-11-12T09:22:02Z</time>
      </trkpt>
      <trkpt lat="44.73977" lon="5.87601">
        <ele>1393.57</ele>
        <time>2015-11-12T09:22:26Z</time>
      </trkpt>
      <trkpt lat="44.73976" lon="5.876">
        <ele>1393.57</ele>
        <time>2015-11-12T09:23:01Z</time>
      </trkpt>
      <trkpt lat="44.73978" lon="5.876">
        <ele>1393.57</ele>
        <time>2015-11-12T09:23:33Z</time>
      </trkpt>
      <trkpt lat="44.73978" lon="5.876">
        <ele>1393.57</ele>
        <time>2015-11-12T09:24:05Z</time>
      </trkpt>
      <trkpt lat="44.73977" lon="5.87602">
        <ele>1393.57</ele>
        <time>2015-11-12T09:24:35Z</time>
      </trkpt>
      <trkpt lat="44.73977" lon="5.876">
        <ele>1393.57</ele>
        <time>2015-11-12T09:24:55Z</time>
      </trkpt>
      <trkpt lat="44.73979" lon="5.876">
        <ele>1394.05</ele>
        <time>2015-11-12T09:25:34Z</time>
      </trkpt>
      <trkpt lat="44.73977" lon="5.876">
        <ele>1394.05</ele>
        <time>2015-11-12T09:26:02Z</time>
      </trkpt>
      <trkpt lat="44.73977" lon="5.87602">
        <ele>1394.53</ele>
        <time>2015-11-12T09:26:27Z</time>
      </trkpt>
      <trkpt lat="44.73979" lon="5.87603">
        <ele>1394.53</ele>
        <time>2015-11-12T09:26:57Z</time>
      </trkpt>
      <trkpt lat="44.73978" lon="5.87601">
        <ele>1394.53</ele>
        <time>2015-11-12T09:27:25Z</time>
      </trkpt>
      <trkpt lat="44.73978" lon="5.876">
        <ele>1394.53</ele>
        <time>2015-11-12T09:27:54Z</time>
      </trkpt>
      <trkpt lat="44.73975" lon="5.87599">
        <ele>1395.49</ele>
        <time>2015-11-12T09:28:14Z</time>
      </trkpt>
      <trkpt lat="44.73974" lon="5.87596">
        <ele>1395.49</ele>
        <time>2015-11-12T09:28:31Z</time>
      </trkpt>
      <trkpt lat="44.73972" lon="5.87598">
        <ele>1395.97</ele>
        <time>2015-11-12T09:28:48Z</time>
      </trkpt>
      <trkpt lat="44.73969" lon="5.87601">
        <ele>1395.01</ele>
        <time>2015-11-12T09:29:00Z</time>
      </trkpt>
      <trkpt lat="44.7397" lon="5.87603">
        <ele>1395.01</ele>
        <time>2015-11-12T09:29:24Z</time>
      </trkpt>
      <trkpt lat="44.73969" lon="5.87602">
        <ele>1395.01</ele>
        <time>2015-11-12T09:29:39Z</time>
      </trkpt>
      <trkpt lat="44.7397" lon="5.87601">
        <ele>1395.01</ele>
        <time>2015-11-12T09:29:57Z</time>
      </trkpt>
      <trkpt lat="44.73975" lon="5.87595">
        <ele>1395.97</ele>
        <time>2015-11-12T09:30:15Z</time>
      </trkpt>
      <trkpt lat="44.73979" lon="5.87591">
        <ele>1396.93</ele>
        <time>2015-11-12T09:30:27Z</time>
      </trkpt>
      <trkpt lat="44.73986" lon="5.87587">
        <ele>1398.37</ele>
        <time>2015-11-12T09:30:40Z</time>
      </trkpt>
      <trkpt lat="44.73986" lon="5.87582">
        <ele>1398.86</ele>
        <time>2015-11-12T09:30:49Z</time>
      </trkpt>
      <trkpt lat="44.73987" lon="5.87581">
        <ele>1399.34</ele>
        <time>2015-11-12T09:31:04Z</time>
      </trkpt>
      <trkpt lat="44.73988" lon="5.87578">
        <ele>1400.3</ele>
        <time>2015-11-12T09:31:13Z</time>
      </trkpt>
      <trkpt lat="44.73994" lon="5.87569">
        <ele>1401.74</ele>
        <time>2015-11-12T09:31:27Z</time>
      </trkpt>
      <trkpt lat="44.74003" lon="5.87571">
        <ele>1403.66</ele>
        <time>2015-11-12T09:31:42Z</time>
      </trkpt>
      <trkpt lat="44.74007" lon="5.87578">
        <ele>1405.1</ele>
        <time>2015-11-12T09:31:53Z</time>
      </trkpt>
      <trkpt lat="44.74014" lon="5.87587">
        <ele>1406.55</ele>
        <time>2015-11-12T09:32:07Z</time>
      </trkpt>
      <trkpt lat="44.74022" lon="5.87593">
        <ele>1408.47</ele>
        <time>2015-11-12T09:32:22Z</time>
      </trkpt>
      <trkpt lat="44.74031" lon="5.87591">
        <ele>1409.43</ele>
        <time>2015-11-12T09:32:35Z</time>
      </trkpt>
      <trkpt lat="44.74039" lon="5.87584">
        <ele>1411.35</ele>
        <time>2015-11-12T09:32:50Z</time>
      </trkpt>
      <trkpt lat="44.74047" lon="5.87578">
        <ele>1411.83</ele>
        <time>2015-11-12T09:33:02Z</time>
      </trkpt>
      <trkpt lat="44.74055" lon="5.87573">
        <ele>1412.79</ele>
        <time>2015-11-12T09:33:15Z</time>
      </trkpt>
      <trkpt lat="44.74062" lon="5.87572">
        <ele>1414.24</ele>
        <time>2015-11-12T09:33:25Z</time>
      </trkpt>
      <trkpt lat="44.7407" lon="5.87571">
        <ele>1415.2</ele>
        <time>2015-11-12T09:33:37Z</time>
      </trkpt>
      <trkpt lat="44.74079" lon="5.87571">
        <ele>1416.64</ele>
        <time>2015-11-12T09:33:50Z</time>
      </trkpt>
      <trkpt lat="44.74083" lon="5.87568">
        <ele>1417.6</ele>
        <time>2015-11-12T09:33:56Z</time>
      </trkpt>
      <trkpt lat="44.74092" lon="5.87566">
        <ele>1418.56</ele>
        <time>2015-11-12T09:34:10Z</time>
      </trkpt>
      <trkpt lat="44.74098" lon="5.87563">
        <ele>1420</ele>
        <time>2015-11-12T09:34:21Z</time>
      </trkpt>
      <trkpt lat="44.74105" lon="5.87559">
        <ele>1421.93</ele>
        <time>2015-11-12T09:34:34Z</time>
      </trkpt>
      <trkpt lat="44.74111" lon="5.87552">
        <ele>1423.37</ele>
        <time>2015-11-12T09:34:47Z</time>
      </trkpt>
      <trkpt lat="44.74118" lon="5.87547">
        <ele>1424.81</ele>
        <time>2015-11-12T09:35:01Z</time>
      </trkpt>
      <trkpt lat="44.74123" lon="5.87539">
        <ele>1426.73</ele>
        <time>2015-11-12T09:35:15Z</time>
      </trkpt>
      <trkpt lat="44.74124" lon="5.87526">
        <ele>1427.7</ele>
        <time>2015-11-12T09:35:28Z</time>
      </trkpt>
      <trkpt lat="44.7413" lon="5.87516">
        <ele>1429.14</ele>
        <time>2015-11-12T09:35:42Z</time>
      </trkpt>
      <trkpt lat="44.74137" lon="5.87512">
        <ele>1430.1</ele>
        <time>2015-11-12T09:35:57Z</time>
      </trkpt>
      <trkpt lat="44.74141" lon="5.87502">
        <ele>1431.54</ele>
        <time>2015-11-12T09:36:12Z</time>
      </trkpt>
      <trkpt lat="44.74147" lon="5.87495">
        <ele>1432.02</ele>
        <time>2015-11-12T09:36:24Z</time>
      </trkpt>
      <trkpt lat="44.74147" lon="5.87494">
        <ele>1432.02</ele>
        <time>2015-11-12T09:36:26Z</time>
      </trkpt>
      <trkpt lat="44.74155" lon="5.87482">
        <ele>1432.98</ele>
        <time>2015-11-12T09:36:42Z</time>
      </trkpt>
      <trkpt lat="44.74161" lon="5.87472">
        <ele>1434.42</ele>
        <time>2015-11-12T09:36:56Z</time>
      </trkpt>
      <trkpt lat="44.74168" lon="5.87469">
        <ele>1435.39</ele>
        <time>2015-11-12T09:37:08Z</time>
      </trkpt>
      <trkpt lat="44.74178" lon="5.87472">
        <ele>1436.83</ele>
        <time>2015-11-12T09:37:21Z</time>
      </trkpt>
      <trkpt lat="44.74187" lon="5.8747">
        <ele>1438.75</ele>
        <time>2015-11-12T09:37:36Z</time>
      </trkpt>
      <trkpt lat="44.74195" lon="5.87475">
        <ele>1439.71</ele>
        <time>2015-11-12T09:37:50Z</time>
      </trkpt>
      <trkpt lat="44.74203" lon="5.87472">
        <ele>1440.67</ele>
        <time>2015-11-12T09:38:02Z</time>
      </trkpt>
      <trkpt lat="44.74206" lon="5.87463">
        <ele>1442.11</ele>
        <time>2015-11-12T09:38:14Z</time>
      </trkpt>
      <trkpt lat="44.74206" lon="5.87455">
        <ele>1443.08</ele>
        <time>2015-11-12T09:38:25Z</time>
      </trkpt>
      <trkpt lat="44.74206" lon="5.87449">
        <ele>1443.08</ele>
        <time>2015-11-12T09:38:35Z</time>
      </trkpt>
      <trkpt lat="44.74206" lon="5.8745">
        <ele>1443.56</ele>
        <time>2015-11-12T09:38:49Z</time>
      </trkpt>
      <trkpt lat="44.74205" lon="5.87448">
        <ele>1442.11</ele>
        <time>2015-11-12T09:39:01Z</time>
      </trkpt>
      <trkpt lat="44.74206" lon="5.87448">
        <ele>1442.11</ele>
        <time>2015-11-12T09:39:39Z</time>
      </trkpt>
      <trkpt lat="44.74205" lon="5.87448">
        <ele>1443.08</ele>
        <time>2015-11-12T09:39:51Z</time>
      </trkpt>
      <trkpt lat="44.74204" lon="5.87447">
        <ele>1443.56</ele>
        <time>2015-11-12T09:40:04Z</time>
      </trkpt>
      <trkpt lat="44.74203" lon="5.87447">
        <ele>1443.56</ele>
        <time>2015-11-12T09:40:16Z</time>
      </trkpt>
      <trkpt lat="44.74205" lon="5.8745">
        <ele>1443.56</ele>
        <time>2015-11-12T09:40:32Z</time>
      </trkpt>
      <trkpt lat="44.74208" lon="5.87447">
        <ele>1443.56</ele>
        <time>2015-11-12T09:40:50Z</time>
      </trkpt>
      <trkpt lat="44.7421" lon="5.87431">
        <ele>1444.52</ele>
        <time>2015-11-12T09:41:05Z</time>
      </trkpt>
      <trkpt lat="44.74213" lon="5.8742">
        <ele>1445.96</ele>
        <time>2015-11-12T09:41:18Z</time>
      </trkpt>
      <trkpt lat="44.74219" lon="5.87415">
        <ele>1447.88</ele>
        <time>2015-11-12T09:41:30Z</time>
      </trkpt>
      <trkpt lat="44.74228" lon="5.87419">
        <ele>1450.29</ele>
        <time>2015-11-12T09:41:45Z</time>
      </trkpt>
      <trkpt lat="44.74235" lon="5.87417">
        <ele>1451.25</ele>
        <time>2015-11-12T09:41:59Z</time>
      </trkpt>
      <trkpt lat="44.74243" lon="5.87409">
        <ele>1452.21</ele>
        <time>2015-11-12T09:42:14Z</time>
      </trkpt>
      <trkpt lat="44.74251" lon="5.87404">
        <ele>1452.69</ele>
        <time>2015-11-12T09:42:28Z</time>
      </trkpt>
      <trkpt lat="44.74255" lon="5.87402">
        <ele>1452.69</ele>
        <time>2015-11-12T09:42:32Z</time>
      </trkpt>
      <trkpt lat="44.74265" lon="5.87398">
        <ele>1454.13</ele>
        <time>2015-11-12T09:42:47Z</time>
      </trkpt>
      <trkpt lat="44.74274" lon="5.87399">
        <ele>1455.57</ele>
        <time>2015-11-12T09:43:01Z</time>
      </trkpt>
      <trkpt lat="44.74281" lon="5.87394">
        <ele>1457.02</ele>
        <time>2015-11-12T09:43:13Z</time>
      </trkpt>
      <trkpt lat="44.7428" lon="5.87379">
        <ele>1458.46</ele>
        <time>2015-11-12T09:43:27Z</time>
      </trkpt>
      <trkpt lat="44.74273" lon="5.8737">
        <ele>1459.9</ele>
        <time>2015-11-12T09:43:40Z</time>
      </trkpt>
      <trkpt lat="44.74271" lon="5.87358">
        <ele>1460.86</ele>
        <time>2015-11-12T09:43:54Z</time>
      </trkpt>
      <trkpt lat="44.74268" lon="5.87348">
        <ele>1462.3</ele>
        <time>2015-11-12T09:44:07Z</time>
      </trkpt>
      <trkpt lat="44.74264" lon="5.87336">
        <ele>1464.23</ele>
        <time>2015-11-12T09:44:23Z</time>
      </trkpt>
      <trkpt lat="44.74261" lon="5.87327">
        <ele>1465.67</ele>
        <time>2015-11-12T09:44:34Z</time>
      </trkpt>
      <trkpt lat="44.74257" lon="5.87318">
        <ele>1468.07</ele>
        <time>2015-11-12T09:44:47Z</time>
      </trkpt>
      <trkpt lat="44.74254" lon="5.87312">
        <ele>1470.47</ele>
        <time>2015-11-12T09:45:01Z</time>
      </trkpt>
      <trkpt lat="44.74249" lon="5.87304">
        <ele>1470.95</ele>
        <time>2015-11-12T09:45:13Z</time>
      </trkpt>
      <trkpt lat="44.74245" lon="5.87285">
        <ele>1471.44</ele>
        <time>2015-11-12T09:45:30Z</time>
      </trkpt>
      <trkpt lat="44.7424" lon="5.8727">
        <ele>1472.4</ele>
        <time>2015-11-12T09:45:46Z</time>
      </trkpt>
      <trkpt lat="44.7424" lon="5.87256">
        <ele>1473.36</ele>
        <time>2015-11-12T09:45:59Z</time>
      </trkpt>
      <trkpt lat="44.7424" lon="5.87241">
        <ele>1474.8</ele>
        <time>2015-11-12T09:46:13Z</time>
      </trkpt>
      <trkpt lat="44.74236" lon="5.8723">
        <ele>1475.76</ele>
        <time>2015-11-12T09:46:27Z</time>
      </trkpt>
      <trkpt lat="44.74235" lon="5.87218">
        <ele>1477.68</ele>
        <time>2015-11-12T09:46:41Z</time>
      </trkpt>
      <trkpt lat="44.7424" lon="5.87205">
        <ele>1478.65</ele>
        <time>2015-11-12T09:46:54Z</time>
      </trkpt>
      <trkpt lat="44.74244" lon="5.87193">
        <ele>1480.09</ele>
        <time>2015-11-12T09:47:07Z</time>
      </trkpt>
      <trkpt lat="44.74248" lon="5.87182">
        <ele>1481.53</ele>
        <time>2015-11-12T09:47:20Z</time>
      </trkpt>
      <trkpt lat="44.74252" lon="5.87175">
        <ele>1482.97</ele>
        <time>2015-11-12T09:47:32Z</time>
      </trkpt>
      <trkpt lat="44.74256" lon="5.87169">
        <ele>1483.93</ele>
        <time>2015-11-12T09:47:43Z</time>
      </trkpt>
      <trkpt lat="44.74263" lon="5.8716">
        <ele>1485.37</ele>
        <time>2015-11-12T09:47:55Z</time>
      </trkpt>
      <trkpt lat="44.74271" lon="5.87158">
        <ele>1487.3</ele>
        <time>2015-11-12T09:48:09Z</time>
      </trkpt>
      <trkpt lat="44.74275" lon="5.8715">
        <ele>1488.74</ele>
        <time>2015-11-12T09:48:22Z</time>
      </trkpt>
      <trkpt lat="44.74282" lon="5.87146">
        <ele>1490.18</ele>
        <time>2015-11-12T09:48:34Z</time>
      </trkpt>
      <trkpt lat="44.74288" lon="5.8714">
        <ele>1491.62</ele>
        <time>2015-11-12T09:48:47Z</time>
      </trkpt>
      <trkpt lat="44.74282" lon="5.8713">
        <ele>1492.58</ele>
        <time>2015-11-12T09:49:00Z</time>
      </trkpt>
      <trkpt lat="44.7428" lon="5.87119">
        <ele>1493.55</ele>
        <time>2015-11-12T09:49:12Z</time>
      </trkpt>
      <trkpt lat="44.74276" lon="5.87108">
        <ele>1495.47</ele>
        <time>2015-11-12T09:49:28Z</time>
      </trkpt>
      <trkpt lat="44.74276" lon="5.87096">
        <ele>1497.39</ele>
        <time>2015-11-12T09:49:41Z</time>
      </trkpt>
      <trkpt lat="44.74276" lon="5.87087">
        <ele>1498.83</ele>
        <time>2015-11-12T09:49:54Z</time>
      </trkpt>
      <trkpt lat="44.74277" lon="5.87075">
        <ele>1500.76</ele>
        <time>2015-11-12T09:50:10Z</time>
      </trkpt>
      <trkpt lat="44.74276" lon="5.87066">
        <ele>1502.2</ele>
        <time>2015-11-12T09:50:23Z</time>
      </trkpt>
      <trkpt lat="44.74278" lon="5.87056">
        <ele>1504.12</ele>
        <time>2015-11-12T09:50:38Z</time>
      </trkpt>
      <trkpt lat="44.74282" lon="5.87043">
        <ele>1505.08</ele>
        <time>2015-11-12T09:50:52Z</time>
      </trkpt>
      <trkpt lat="44.74283" lon="5.87028">
        <ele>1505.56</ele>
        <time>2015-11-12T09:51:06Z</time>
      </trkpt>
      <trkpt lat="44.74282" lon="5.87012">
        <ele>1506.52</ele>
        <time>2015-11-12T09:51:23Z</time>
      </trkpt>
      <trkpt lat="44.74279" lon="5.86999">
        <ele>1507.48</ele>
        <time>2015-11-12T09:51:37Z</time>
      </trkpt>
      <trkpt lat="44.74275" lon="5.86989">
        <ele>1508.45</ele>
        <time>2015-11-12T09:51:50Z</time>
      </trkpt>
      <trkpt lat="44.74272" lon="5.86975">
        <ele>1509.89</ele>
        <time>2015-11-12T09:52:06Z</time>
      </trkpt>
      <trkpt lat="44.74268" lon="5.86963">
        <ele>1511.81</ele>
        <time>2015-11-12T09:52:20Z</time>
      </trkpt>
      <trkpt lat="44.74266" lon="5.86953">
        <ele>1513.25</ele>
        <time>2015-11-12T09:52:35Z</time>
      </trkpt>
      <trkpt lat="44.74265" lon="5.86945">
        <ele>1515.18</ele>
        <time>2015-11-12T09:52:53Z</time>
      </trkpt>
      <trkpt lat="44.74264" lon="5.86935">
        <ele>1516.62</ele>
        <time>2015-11-12T09:53:08Z</time>
      </trkpt>
      <trkpt lat="44.74264" lon="5.86932">
        <ele>1517.58</ele>
        <time>2015-11-12T09:53:19Z</time>
      </trkpt>
      <trkpt lat="44.74263" lon="5.86924">
        <ele>1518.54</ele>
        <time>2015-11-12T09:53:34Z</time>
      </trkpt>
      <trkpt lat="44.74264" lon="5.86912">
        <ele>1520.46</ele>
        <time>2015-11-12T09:53:46Z</time>
      </trkpt>
      <trkpt lat="44.74267" lon="5.86901">
        <ele>1522.87</ele>
        <time>2015-11-12T09:54:01Z</time>
      </trkpt>
      <trkpt lat="44.74276" lon="5.86893">
        <ele>1523.83</ele>
        <time>2015-11-12T09:54:18Z</time>
      </trkpt>
      <trkpt lat="44.74284" lon="5.86888">
        <ele>1523.35</ele>
        <time>2015-11-12T09:54:31Z</time>
      </trkpt>
      <trkpt lat="44.74288" lon="5.86886">
        <ele>1523.35</ele>
        <time>2015-11-12T09:54:47Z</time>
      </trkpt>
      <trkpt lat="44.74287" lon="5.86884">
        <ele>1523.35</ele>
        <time>2015-11-12T09:55:07Z</time>
      </trkpt>
      <trkpt lat="44.74288" lon="5.86885">
        <ele>1523.83</ele>
        <time>2015-11-12T09:55:36Z</time>
      </trkpt>
      <trkpt lat="44.74288" lon="5.86882">
        <ele>1523.83</ele>
        <time>2015-11-12T09:56:04Z</time>
      </trkpt>
      <trkpt lat="44.7429" lon="5.86885">
        <ele>1524.31</ele>
        <time>2015-11-12T09:56:27Z</time>
      </trkpt>
      <trkpt lat="44.7429" lon="5.86888">
        <ele>1523.83</ele>
        <time>2015-11-12T09:56:51Z</time>
      </trkpt>
      <trkpt lat="44.74288" lon="5.86888">
        <ele>1523.83</ele>
        <time>2015-11-12T09:57:11Z</time>
      </trkpt>
      <trkpt lat="44.74287" lon="5.86887">
        <ele>1523.83</ele>
        <time>2015-11-12T09:57:31Z</time>
      </trkpt>
      <trkpt lat="44.74289" lon="5.86887">
        <ele>1523.83</ele>
        <time>2015-11-12T09:57:50Z</time>
      </trkpt>
      <trkpt lat="44.74287" lon="5.86889">
        <ele>1523.83</ele>
        <time>2015-11-12T09:57:59Z</time>
      </trkpt>
      <trkpt lat="44.74282" lon="5.86894">
        <ele>1523.83</ele>
        <time>2015-11-12T09:58:06Z</time>
      </trkpt>
      <trkpt lat="44.7427" lon="5.86899">
        <ele>1524.31</ele>
        <time>2015-11-12T09:58:21Z</time>
      </trkpt>
      <trkpt lat="44.74269" lon="5.86899">
        <ele>1524.31</ele>
        <time>2015-11-12T09:58:35Z</time>
      </trkpt>
      <trkpt lat="44.7427" lon="5.86901">
        <ele>1524.31</ele>
        <time>2015-11-12T09:59:03Z</time>
      </trkpt>
      <trkpt lat="44.7427" lon="5.86898">
        <ele>1524.31</ele>
        <time>2015-11-12T09:59:27Z</time>
      </trkpt>
      <trkpt lat="44.74272" lon="5.86899">
        <ele>1524.31</ele>
        <time>2015-11-12T09:59:57Z</time>
      </trkpt>
      <trkpt lat="44.7427" lon="5.869">
        <ele>1524.31</ele>
        <time>2015-11-12T10:00:09Z</time>
      </trkpt>
      <trkpt lat="44.74264" lon="5.86905">
        <ele>1523.35</ele>
        <time>2015-11-12T10:00:27Z</time>
      </trkpt>
      <trkpt lat="44.74267" lon="5.86899">
        <ele>1523.83</ele>
        <time>2015-11-12T10:00:47Z</time>
      </trkpt>
      <trkpt lat="44.74275" lon="5.86896">
        <ele>1524.31</ele>
        <time>2015-11-12T10:01:01Z</time>
      </trkpt>
      <trkpt lat="44.74283" lon="5.86886">
        <ele>1523.83</ele>
        <time>2015-11-12T10:01:16Z</time>
      </trkpt>
      <trkpt lat="44.7429" lon="5.86886">
        <ele>1524.31</ele>
        <time>2015-11-12T10:01:29Z</time>
      </trkpt>
      <trkpt lat="44.7429" lon="5.86886">
        <ele>1524.31</ele>
        <time>2015-11-12T10:01:49Z</time>
      </trkpt>
      <trkpt lat="44.74288" lon="5.86886">
        <ele>1524.31</ele>
        <time>2015-11-12T10:02:23Z</time>
      </trkpt>
      <trkpt lat="44.74289" lon="5.86888">
        <ele>1525.27</ele>
        <time>2015-11-12T10:02:41Z</time>
      </trkpt>
      <trkpt lat="44.74289" lon="5.86888">
        <ele>1524.31</ele>
        <time>2015-11-12T10:03:04Z</time>
      </trkpt>
      <trkpt lat="44.7429" lon="5.86885">
        <ele>1524.79</ele>
        <time>2015-11-12T10:03:18Z</time>
      </trkpt>
      <trkpt lat="44.74291" lon="5.86886">
        <ele>1524.79</ele>
        <time>2015-11-12T10:03:50Z</time>
      </trkpt>
      <trkpt lat="44.74291" lon="5.86886">
        <ele>1524.79</ele>
        <time>2015-11-12T10:04:17Z</time>
      </trkpt>
      <trkpt lat="44.74296" lon="5.86878">
        <ele>1525.75</ele>
        <time>2015-11-12T10:04:30Z</time>
      </trkpt>
      <trkpt lat="44.74297" lon="5.86878">
        <ele>1525.75</ele>
        <time>2015-11-12T10:04:31Z</time>
      </trkpt>
      <trkpt lat="44.74307" lon="5.86874">
        <ele>1527.19</ele>
        <time>2015-11-12T10:04:46Z</time>
      </trkpt>
      <trkpt lat="44.74318" lon="5.86871">
        <ele>1528.63</ele>
        <time>2015-11-12T10:05:01Z</time>
      </trkpt>
      <trkpt lat="44.7432" lon="5.86861">
        <ele>1530.56</ele>
        <time>2015-11-12T10:05:14Z</time>
      </trkpt>
      <trkpt lat="44.74314" lon="5.86854">
        <ele>1532</ele>
        <time>2015-11-12T10:05:27Z</time>
      </trkpt>
      <trkpt lat="44.74304" lon="5.8685">
        <ele>1532.96</ele>
        <time>2015-11-12T10:05:40Z</time>
      </trkpt>
      <trkpt lat="44.74294" lon="5.86843">
        <ele>1533.92</ele>
        <time>2015-11-12T10:05:54Z</time>
      </trkpt>
      <trkpt lat="44.74283" lon="5.86838">
        <ele>1534.88</ele>
        <time>2015-11-12T10:06:09Z</time>
      </trkpt>
      <trkpt lat="44.74268" lon="5.86842">
        <ele>1534.88</ele>
        <time>2015-11-12T10:06:27Z</time>
      </trkpt>
      <trkpt lat="44.74256" lon="5.86841">
        <ele>1535.84</ele>
        <time>2015-11-12T10:06:42Z</time>
      </trkpt>
      <trkpt lat="44.7425" lon="5.86833">
        <ele>1538.25</ele>
        <time>2015-11-12T10:06:56Z</time>
      </trkpt>
      <trkpt lat="44.74241" lon="5.86826">
        <ele>1539.21</ele>
        <time>2015-11-12T10:07:11Z</time>
      </trkpt>
      <trkpt lat="44.74232" lon="5.86822">
        <ele>1542.09</ele>
        <time>2015-11-12T10:07:26Z</time>
      </trkpt>
      <trkpt lat="44.74225" lon="5.86814">
        <ele>1543.05</ele>
        <time>2015-11-12T10:07:38Z</time>
      </trkpt>
      <trkpt lat="44.74219" lon="5.8681">
        <ele>1543.05</ele>
        <time>2015-11-12T10:07:45Z</time>
      </trkpt>
      <trkpt lat="44.7421" lon="5.86795">
        <ele>1543.05</ele>
        <time>2015-11-12T10:08:02Z</time>
      </trkpt>
      <trkpt lat="44.74203" lon="5.86785">
        <ele>1544.98</ele>
        <time>2015-11-12T10:08:16Z</time>
      </trkpt>
      <trkpt lat="44.74192" lon="5.86782">
        <ele>1545.94</ele>
        <time>2015-11-12T10:08:30Z</time>
      </trkpt>
      <trkpt lat="44.74175" lon="5.86781">
        <ele>1545.46</ele>
        <time>2015-11-12T10:08:50Z</time>
      </trkpt>
      <trkpt lat="44.74164" lon="5.86777">
        <ele>1546.9</ele>
        <time>2015-11-12T10:09:04Z</time>
      </trkpt>
      <trkpt lat="44.74152" lon="5.86773">
        <ele>1547.86</ele>
        <time>2015-11-12T10:09:19Z</time>
      </trkpt>
      <trkpt lat="44.74145" lon="5.86763">
        <ele>1548.82</ele>
        <time>2015-11-12T10:09:31Z</time>
      </trkpt>
      <trkpt lat="44.74143" lon="5.86754">
        <ele>1549.78</ele>
        <time>2015-11-12T10:09:42Z</time>
      </trkpt>
      <trkpt lat="44.74141" lon="5.86741">
        <ele>1551.22</ele>
        <time>2015-11-12T10:09:55Z</time>
      </trkpt>
      <trkpt lat="44.74138" lon="5.86734">
        <ele>1552.67</ele>
        <time>2015-11-12T10:10:06Z</time>
      </trkpt>
      <trkpt lat="44.74135" lon="5.86727">
        <ele>1554.59</ele>
        <time>2015-11-12T10:10:18Z</time>
      </trkpt>
      <trkpt lat="44.7413" lon="5.86717">
        <ele>1556.99</ele>
        <time>2015-11-12T10:10:34Z</time>
      </trkpt>
      <trkpt lat="44.74122" lon="5.86711">
        <ele>1558.92</ele>
        <time>2015-11-12T10:10:49Z</time>
      </trkpt>
      <trkpt lat="44.74112" lon="5.86707">
        <ele>1560.84</ele>
        <time>2015-11-12T10:11:03Z</time>
      </trkpt>
      <trkpt lat="44.74103" lon="5.86704">
        <ele>1561.8</ele>
        <time>2015-11-12T10:11:17Z</time>
      </trkpt>
      <trkpt lat="44.74093" lon="5.86704">
        <ele>1563.24</ele>
        <time>2015-11-12T10:11:30Z</time>
      </trkpt>
      <trkpt lat="44.74082" lon="5.86706">
        <ele>1564.68</ele>
        <time>2015-11-12T10:11:45Z</time>
      </trkpt>
      <trkpt lat="44.74071" lon="5.86707">
        <ele>1565.64</ele>
        <time>2015-11-12T10:11:59Z</time>
      </trkpt>
      <trkpt lat="44.74059" lon="5.86706">
        <ele>1566.61</ele>
        <time>2015-11-12T10:12:13Z</time>
      </trkpt>
      <trkpt lat="44.74054" lon="5.86696">
        <ele>1567.57</ele>
        <time>2015-11-12T10:12:26Z</time>
      </trkpt>
      <trkpt lat="44.7405" lon="5.86686">
        <ele>1569.49</ele>
        <time>2015-11-12T10:12:40Z</time>
      </trkpt>
      <trkpt lat="44.74047" lon="5.86675">
        <ele>1571.89</ele>
        <time>2015-11-12T10:12:55Z</time>
      </trkpt>
      <trkpt lat="44.74044" lon="5.86668">
        <ele>1573.33</ele>
        <time>2015-11-12T10:13:07Z</time>
      </trkpt>
      <trkpt lat="44.7404" lon="5.8666">
        <ele>1574.78</ele>
        <time>2015-11-12T10:13:20Z</time>
      </trkpt>
      <trkpt lat="44.74034" lon="5.86653">
        <ele>1576.7</ele>
        <time>2015-11-12T10:13:32Z</time>
      </trkpt>
      <trkpt lat="44.74029" lon="5.86646">
        <ele>1577.66</ele>
        <time>2015-11-12T10:13:44Z</time>
      </trkpt>
      <trkpt lat="44.74024" lon="5.86639">
        <ele>1579.1</ele>
        <time>2015-11-12T10:13:56Z</time>
      </trkpt>
      <trkpt lat="44.74019" lon="5.86632">
        <ele>1580.54</ele>
        <time>2015-11-12T10:14:08Z</time>
      </trkpt>
      <trkpt lat="44.74014" lon="5.86622">
        <ele>1582.47</ele>
        <time>2015-11-12T10:14:21Z</time>
      </trkpt>
      <trkpt lat="44.7401" lon="5.86611">
        <ele>1584.39</ele>
        <time>2015-11-12T10:14:35Z</time>
      </trkpt>
      <trkpt lat="44.74008" lon="5.86598">
        <ele>1586.31</ele>
        <time>2015-11-12T10:14:49Z</time>
      </trkpt>
      <trkpt lat="44.74013" lon="5.86588">
        <ele>1588.24</ele>
        <time>2015-11-12T10:15:04Z</time>
      </trkpt>
      <trkpt lat="44.74018" lon="5.8658">
        <ele>1589.68</ele>
        <time>2015-11-12T10:15:18Z</time>
      </trkpt>
      <trkpt lat="44.74024" lon="5.86574">
        <ele>1591.12</ele>
        <time>2015-11-12T10:15:29Z</time>
      </trkpt>
      <trkpt lat="44.7403" lon="5.86565">
        <ele>1593.04</ele>
        <time>2015-11-12T10:15:44Z</time>
      </trkpt>
      <trkpt lat="44.74036" lon="5.86556">
        <ele>1594.96</ele>
        <time>2015-11-12T10:15:58Z</time>
      </trkpt>
      <trkpt lat="44.7404" lon="5.86548">
        <ele>1596.41</ele>
        <time>2015-11-12T10:16:11Z</time>
      </trkpt>
      <trkpt lat="44.74045" lon="5.8654">
        <ele>1598.33</ele>
        <time>2015-11-12T10:16:25Z</time>
      </trkpt>
      <trkpt lat="44.74051" lon="5.8653">
        <ele>1600.25</ele>
        <time>2015-11-12T10:16:39Z</time>
      </trkpt>
      <trkpt lat="44.74052" lon="5.8652">
        <ele>1601.21</ele>
        <time>2015-11-12T10:16:53Z</time>
      </trkpt>
      <trkpt lat="44.74051" lon="5.86512">
        <ele>1602.66</ele>
        <time>2015-11-12T10:17:06Z</time>
      </trkpt>
      <trkpt lat="44.7405" lon="5.86507">
        <ele>1604.1</ele>
        <time>2015-11-12T10:17:18Z</time>
      </trkpt>
      <trkpt lat="44.74047" lon="5.86497">
        <ele>1606.5</ele>
        <time>2015-11-12T10:17:31Z</time>
      </trkpt>
      <trkpt lat="44.74044" lon="5.86489">
        <ele>1608.42</ele>
        <time>2015-11-12T10:17:43Z</time>
      </trkpt>
      <trkpt lat="44.74039" lon="5.86482">
        <ele>1610.35</ele>
        <time>2015-11-12T10:17:56Z</time>
      </trkpt>
      <trkpt lat="44.74033" lon="5.86477">
        <ele>1612.27</ele>
        <time>2015-11-12T10:18:12Z</time>
      </trkpt>
      <trkpt lat="44.74026" lon="5.86478">
        <ele>1613.23</ele>
        <time>2015-11-12T10:18:22Z</time>
      </trkpt>
      <trkpt lat="44.74019" lon="5.86479">
        <ele>1614.19</ele>
        <time>2015-11-12T10:18:34Z</time>
      </trkpt>
      <trkpt lat="44.74009" lon="5.86478">
        <ele>1614.67</ele>
        <time>2015-11-12T10:18:50Z</time>
      </trkpt>
      <trkpt lat="44.74005" lon="5.86479">
        <ele>1616.11</ele>
        <time>2015-11-12T10:19:03Z</time>
      </trkpt>
      <trkpt lat="44.74001" lon="5.86483">
        <ele>1616.11</ele>
        <time>2015-11-12T10:19:19Z</time>
      </trkpt>
      <trkpt lat="44.7399" lon="5.86492">
        <ele>1616.59</ele>
        <time>2015-11-12T10:19:36Z</time>
      </trkpt>
      <trkpt lat="44.73981" lon="5.86491">
        <ele>1617.56</ele>
        <time>2015-11-12T10:19:48Z</time>
      </trkpt>
      <trkpt lat="44.73979" lon="5.8649">
        <ele>1618.04</ele>
        <time>2015-11-12T10:19:59Z</time>
      </trkpt>
      <trkpt lat="44.73978" lon="5.8649">
        <ele>1618.04</ele>
        <time>2015-11-12T10:20:24Z</time>
      </trkpt>
      <trkpt lat="44.73978" lon="5.8649">
        <ele>1618.52</ele>
        <time>2015-11-12T10:20:42Z</time>
      </trkpt>
      <trkpt lat="44.73978" lon="5.86491">
        <ele>1618.04</ele>
        <time>2015-11-12T10:20:58Z</time>
      </trkpt>
      <trkpt lat="44.73978" lon="5.8649">
        <ele>1618.04</ele>
        <time>2015-11-12T10:21:12Z</time>
      </trkpt>
      <trkpt lat="44.73978" lon="5.8649">
        <ele>1618.04</ele>
        <time>2015-11-12T10:21:32Z</time>
      </trkpt>
      <trkpt lat="44.73978" lon="5.86491">
        <ele>1618.04</ele>
        <time>2015-11-12T10:21:55Z</time>
      </trkpt>
      <trkpt lat="44.73978" lon="5.86491">
        <ele>1618.04</ele>
        <time>2015-11-12T10:22:16Z</time>
      </trkpt>
      <trkpt lat="44.73978" lon="5.8649">
        <ele>1618.04</ele>
        <time>2015-11-12T10:22:36Z</time>
      </trkpt>
      <trkpt lat="44.7398" lon="5.86492">
        <ele>1618.52</ele>
        <time>2015-11-12T10:22:52Z</time>
      </trkpt>
      <trkpt lat="44.73978" lon="5.86492">
        <ele>1618.52</ele>
        <time>2015-11-12T10:23:13Z</time>
      </trkpt>
      <trkpt lat="44.7398" lon="5.86491">
        <ele>1618.52</ele>
        <time>2015-11-12T10:23:32Z</time>
      </trkpt>
      <trkpt lat="44.73978" lon="5.86491">
        <ele>1618.52</ele>
        <time>2015-11-12T10:23:56Z</time>
      </trkpt>
      <trkpt lat="44.73978" lon="5.8649">
        <ele>1618.52</ele>
        <time>2015-11-12T10:24:12Z</time>
      </trkpt>
      <trkpt lat="44.73977" lon="5.86489">
        <ele>1618.04</ele>
        <time>2015-11-12T10:24:24Z</time>
      </trkpt>
      <trkpt lat="44.73978" lon="5.86489">
        <ele>1618.04</ele>
        <time>2015-11-12T10:24:49Z</time>
      </trkpt>
      <trkpt lat="44.73978" lon="5.86489">
        <ele>1618.04</ele>
        <time>2015-11-12T10:25:11Z</time>
      </trkpt>
      <trkpt lat="44.73975" lon="5.8649">
        <ele>1618.04</ele>
        <time>2015-11-12T10:25:29Z</time>
      </trkpt>
      <trkpt lat="44.73974" lon="5.86485">
        <ele>1618.52</ele>
        <time>2015-11-12T10:25:42Z</time>
      </trkpt>
      <trkpt lat="44.73972" lon="5.86482">
        <ele>1619</ele>
        <time>2015-11-12T10:25:56Z</time>
      </trkpt>
      <trkpt lat="44.73971" lon="5.86476">
        <ele>1620.44</ele>
        <time>2015-11-12T10:26:08Z</time>
      </trkpt>
      <trkpt lat="44.7397" lon="5.86474">
        <ele>1620.92</ele>
        <time>2015-11-12T10:26:20Z</time>
      </trkpt>
      <trkpt lat="44.73968" lon="5.86471">
        <ele>1622.36</ele>
        <time>2015-11-12T10:26:31Z</time>
      </trkpt>
      <trkpt lat="44.73969" lon="5.86472">
        <ele>1622.36</ele>
        <time>2015-11-12T10:26:50Z</time>
      </trkpt>
      <trkpt lat="44.73968" lon="5.86474">
        <ele>1622.36</ele>
        <time>2015-11-12T10:27:10Z</time>
      </trkpt>
      <trkpt lat="44.73968" lon="5.86474">
        <ele>1622.36</ele>
        <time>2015-11-12T10:27:30Z</time>
      </trkpt>
      <trkpt lat="44.73969" lon="5.86472">
        <ele>1622.84</ele>
        <time>2015-11-12T10:27:52Z</time>
      </trkpt>
      <trkpt lat="44.73966" lon="5.86472">
        <ele>1622.84</ele>
        <time>2015-11-12T10:28:13Z</time>
      </trkpt>
      <trkpt lat="44.73961" lon="5.86467">
        <ele>1623.8</ele>
        <time>2015-11-12T10:28:25Z</time>
      </trkpt>
      <trkpt lat="44.73954" lon="5.86466">
        <ele>1624.77</ele>
        <time>2015-11-12T10:28:37Z</time>
      </trkpt>
      <trkpt lat="44.73946" lon="5.86463">
        <ele>1626.69</ele>
        <time>2015-11-12T10:28:49Z</time>
      </trkpt>
      <trkpt lat="44.73939" lon="5.86463">
        <ele>1627.65</ele>
        <time>2015-11-12T10:29:00Z</time>
      </trkpt>
      <trkpt lat="44.7393" lon="5.86462">
        <ele>1630.53</ele>
        <time>2015-11-12T10:29:17Z</time>
      </trkpt>
      <trkpt lat="44.73926" lon="5.86457">
        <ele>1632.94</ele>
        <time>2015-11-12T10:29:30Z</time>
      </trkpt>
      <trkpt lat="44.73924" lon="5.86451">
        <ele>1636.3</ele>
        <time>2015-11-12T10:29:46Z</time>
      </trkpt>
      <trkpt lat="44.73913" lon="5.86455">
        <ele>1636.78</ele>
        <time>2015-11-12T10:30:00Z</time>
      </trkpt>
      <trkpt lat="44.73904" lon="5.86457">
        <ele>1638.7</ele>
        <time>2015-11-12T10:30:14Z</time>
      </trkpt>
      <trkpt lat="44.73896" lon="5.8646">
        <ele>1639.67</ele>
        <time>2015-11-12T10:30:27Z</time>
      </trkpt>
      <trkpt lat="44.73887" lon="5.86463">
        <ele>1640.15</ele>
        <time>2015-11-12T10:30:40Z</time>
      </trkpt>
      <trkpt lat="44.73881" lon="5.86463">
        <ele>1640.63</ele>
        <time>2015-11-12T10:30:51Z</time>
      </trkpt>
      <trkpt lat="44.73872" lon="5.86464">
        <ele>1642.07</ele>
        <time>2015-11-12T10:31:06Z</time>
      </trkpt>
      <trkpt lat="44.73863" lon="5.86464">
        <ele>1643.03</ele>
        <time>2015-11-12T10:31:20Z</time>
      </trkpt>
      <trkpt lat="44.73853" lon="5.86464">
        <ele>1644.47</ele>
        <time>2015-11-12T10:31:34Z</time>
      </trkpt>
      <trkpt lat="44.73844" lon="5.86462">
        <ele>1645.43</ele>
        <time>2015-11-12T10:31:48Z</time>
      </trkpt>
      <trkpt lat="44.73832" lon="5.86461">
        <ele>1643.99</ele>
        <time>2015-11-12T10:32:03Z</time>
      </trkpt>
      <trkpt lat="44.73821" lon="5.86461">
        <ele>1643.03</ele>
        <time>2015-11-12T10:32:16Z</time>
      </trkpt>
      <trkpt lat="44.7381" lon="5.86463">
        <ele>1642.07</ele>
        <time>2015-11-12T10:32:31Z</time>
      </trkpt>
      <trkpt lat="44.738" lon="5.86461">
        <ele>1641.59</ele>
        <time>2015-11-12T10:32:45Z</time>
      </trkpt>
      <trkpt lat="44.7379" lon="5.86457">
        <ele>1640.63</ele>
        <time>2015-11-12T10:33:00Z</time>
      </trkpt>
      <trkpt lat="44.73783" lon="5.8646">
        <ele>1639.19</ele>
        <time>2015-11-12T10:33:15Z</time>
      </trkpt>
      <trkpt lat="44.73772" lon="5.86459">
        <ele>1637.74</ele>
        <time>2015-11-12T10:33:30Z</time>
      </trkpt>
      <trkpt lat="44.73764" lon="5.86461">
        <ele>1637.74</ele>
        <time>2015-11-12T10:33:42Z</time>
      </trkpt>
      <trkpt lat="44.7376" lon="5.86464">
        <ele>1636.78</ele>
        <time>2015-11-12T10:33:55Z</time>
      </trkpt>
      <trkpt lat="44.73755" lon="5.86468">
        <ele>1635.82</ele>
        <time>2015-11-12T10:34:11Z</time>
      </trkpt>
      <trkpt lat="44.73748" lon="5.86468">
        <ele>1635.34</ele>
        <time>2015-11-12T10:34:22Z</time>
      </trkpt>
      <trkpt lat="44.73742" lon="5.86468">
        <ele>1635.34</ele>
        <time>2015-11-12T10:34:34Z</time>
      </trkpt>
      <trkpt lat="44.73739" lon="5.86467">
        <ele>1635.34</ele>
        <time>2015-11-12T10:34:49Z</time>
      </trkpt>
      <trkpt lat="44.73734" lon="5.86471">
        <ele>1635.82</ele>
        <time>2015-11-12T10:35:00Z</time>
      </trkpt>
      <trkpt lat="44.73731" lon="5.86474">
        <ele>1632.94</ele>
        <time>2015-11-12T10:35:14Z</time>
      </trkpt>
      <trkpt lat="44.73723" lon="5.86477">
        <ele>1632.46</ele>
        <time>2015-11-12T10:35:29Z</time>
      </trkpt>
      <trkpt lat="44.73716" lon="5.86478">
        <ele>1633.42</ele>
        <time>2015-11-12T10:35:39Z</time>
      </trkpt>
      <trkpt lat="44.73708" lon="5.86475">
        <ele>1634.38</ele>
        <time>2015-11-12T10:35:53Z</time>
      </trkpt>
      <trkpt lat="44.73704" lon="5.86472">
        <ele>1634.38</ele>
        <time>2015-11-12T10:36:09Z</time>
      </trkpt>
      <trkpt lat="44.73696" lon="5.86476">
        <ele>1633.42</ele>
        <time>2015-11-12T10:36:22Z</time>
      </trkpt>
      <trkpt lat="44.73686" lon="5.8648">
        <ele>1631.49</ele>
        <time>2015-11-12T10:36:36Z</time>
      </trkpt>
      <trkpt lat="44.73681" lon="5.86488">
        <ele>1630.05</ele>
        <time>2015-11-12T10:36:50Z</time>
      </trkpt>
      <trkpt lat="44.73673" lon="5.86481">
        <ele>1628.61</ele>
        <time>2015-11-12T10:37:05Z</time>
      </trkpt>
      <trkpt lat="44.73665" lon="5.8647">
        <ele>1628.13</ele>
        <time>2015-11-12T10:37:19Z</time>
      </trkpt>
      <trkpt lat="44.73654" lon="5.86459">
        <ele>1628.13</ele>
        <time>2015-11-12T10:37:37Z</time>
      </trkpt>
      <trkpt lat="44.73642" lon="5.86457">
        <ele>1628.61</ele>
        <time>2015-11-12T10:37:52Z</time>
      </trkpt>
      <trkpt lat="44.73633" lon="5.86464">
        <ele>1628.13</ele>
        <time>2015-11-12T10:38:08Z</time>
      </trkpt>
      <trkpt lat="44.73626" lon="5.86463">
        <ele>1627.17</ele>
        <time>2015-11-12T10:38:20Z</time>
      </trkpt>
      <trkpt lat="44.73619" lon="5.86454">
        <ele>1626.69</ele>
        <time>2015-11-12T10:38:34Z</time>
      </trkpt>
      <trkpt lat="44.73609" lon="5.8645">
        <ele>1624.77</ele>
        <time>2015-11-12T10:38:50Z</time>
      </trkpt>
      <trkpt lat="44.736" lon="5.86438">
        <ele>1623.32</ele>
        <time>2015-11-12T10:39:07Z</time>
      </trkpt>
      <trkpt lat="44.73591" lon="5.8643">
        <ele>1621.4</ele>
        <time>2015-11-12T10:39:24Z</time>
      </trkpt>
      <trkpt lat="44.73581" lon="5.86427">
        <ele>1619.48</ele>
        <time>2015-11-12T10:39:39Z</time>
      </trkpt>
      <trkpt lat="44.73571" lon="5.86423">
        <ele>1619</ele>
        <time>2015-11-12T10:39:53Z</time>
      </trkpt>
      <trkpt lat="44.73564" lon="5.86419">
        <ele>1618.52</ele>
        <time>2015-11-12T10:40:07Z</time>
      </trkpt>
      <trkpt lat="44.73554" lon="5.86417">
        <ele>1617.56</ele>
        <time>2015-11-12T10:40:20Z</time>
      </trkpt>
      <trkpt lat="44.73549" lon="5.86412">
        <ele>1617.56</ele>
        <time>2015-11-12T10:40:32Z</time>
      </trkpt>
      <trkpt lat="44.73543" lon="5.86405">
        <ele>1616.11</ele>
        <time>2015-11-12T10:40:44Z</time>
      </trkpt>
      <trkpt lat="44.73533" lon="5.86399">
        <ele>1613.71</ele>
        <time>2015-11-12T10:40:59Z</time>
      </trkpt>
      <trkpt lat="44.73532" lon="5.86398">
        <ele>1613.71</ele>
        <time>2015-11-12T10:41:01Z</time>
      </trkpt>
      <trkpt lat="44.73522" lon="5.86402">
        <ele>1612.27</ele>
        <time>2015-11-12T10:41:14Z</time>
      </trkpt>
      <trkpt lat="44.73513" lon="5.86404">
        <ele>1610.83</ele>
        <time>2015-11-12T10:41:27Z</time>
      </trkpt>
      <trkpt lat="44.73511" lon="5.86404">
        <ele>1610.83</ele>
        <time>2015-11-12T10:41:29Z</time>
      </trkpt>
      <trkpt lat="44.73508" lon="5.86405">
        <ele>1610.83</ele>
        <time>2015-11-12T10:41:32Z</time>
      </trkpt>
      <trkpt lat="44.73498" lon="5.86408">
        <ele>1608.9</ele>
        <time>2015-11-12T10:41:46Z</time>
      </trkpt>
      <trkpt lat="44.73489" lon="5.86407">
        <ele>1607.94</ele>
        <time>2015-11-12T10:41:58Z</time>
      </trkpt>
      <trkpt lat="44.7348" lon="5.86402">
        <ele>1606.5</ele>
        <time>2015-11-12T10:42:13Z</time>
      </trkpt>
      <trkpt lat="44.7347" lon="5.864">
        <ele>1604.1</ele>
        <time>2015-11-12T10:42:28Z</time>
      </trkpt>
      <trkpt lat="44.73461" lon="5.864">
        <ele>1603.62</ele>
        <time>2015-11-12T10:42:40Z</time>
      </trkpt>
      <trkpt lat="44.73453" lon="5.86397">
        <ele>1603.14</ele>
        <time>2015-11-12T10:42:52Z</time>
      </trkpt>
      <trkpt lat="44.7345" lon="5.86397">
        <ele>1603.62</ele>
        <time>2015-11-12T10:42:56Z</time>
      </trkpt>
      <trkpt lat="44.73446" lon="5.864">
        <ele>1603.62</ele>
        <time>2015-11-12T10:43:02Z</time>
      </trkpt>
      <trkpt lat="44.73444" lon="5.86401">
        <ele>1603.62</ele>
        <time>2015-11-12T10:43:05Z</time>
      </trkpt>
      <trkpt lat="44.73436" lon="5.86401">
        <ele>1604.1</ele>
        <time>2015-11-12T10:43:16Z</time>
      </trkpt>
      <trkpt lat="44.73426" lon="5.86405">
        <ele>1603.62</ele>
        <time>2015-11-12T10:43:27Z</time>
      </trkpt>
      <trkpt lat="44.73425" lon="5.86409">
        <ele>1604.1</ele>
        <time>2015-11-12T10:43:42Z</time>
      </trkpt>
      <trkpt lat="44.73428" lon="5.86407">
        <ele>1603.62</ele>
        <time>2015-11-12T10:44:14Z</time>
      </trkpt>
      <trkpt lat="44.73425" lon="5.86404">
        <ele>1604.1</ele>
        <time>2015-11-12T10:44:34Z</time>
      </trkpt>
      <trkpt lat="44.73423" lon="5.86406">
        <ele>1604.1</ele>
        <time>2015-11-12T10:44:48Z</time>
      </trkpt>
      <trkpt lat="44.73422" lon="5.86404">
        <ele>1604.1</ele>
        <time>2015-11-12T10:45:20Z</time>
      </trkpt>
      <trkpt lat="44.73422" lon="5.86404">
        <ele>1604.1</ele>
        <time>2015-11-12T10:45:39Z</time>
      </trkpt>
      <trkpt lat="44.73422" lon="5.86404">
        <ele>1604.1</ele>
        <time>2015-11-12T10:45:57Z</time>
      </trkpt>
      <trkpt lat="44.73424" lon="5.86405">
        <ele>1604.1</ele>
        <time>2015-11-12T10:46:22Z</time>
      </trkpt>
      <trkpt lat="44.73422" lon="5.86404">
        <ele>1604.1</ele>
        <time>2015-11-12T10:46:38Z</time>
      </trkpt>
      <trkpt lat="44.73422" lon="5.86404">
        <ele>1604.1</ele>
        <time>2015-11-12T10:47:02Z</time>
      </trkpt>
      <trkpt lat="44.73423" lon="5.86406">
        <ele>1604.1</ele>
        <time>2015-11-12T10:47:33Z</time>
      </trkpt>
      <trkpt lat="44.73422" lon="5.86406">
        <ele>1604.1</ele>
        <time>2015-11-12T10:47:48Z</time>
      </trkpt>
      <trkpt lat="44.73422" lon="5.86405">
        <ele>1604.1</ele>
        <time>2015-11-12T10:48:07Z</time>
      </trkpt>
      <trkpt lat="44.7342" lon="5.86405">
        <ele>1603.14</ele>
        <time>2015-11-12T10:48:25Z</time>
      </trkpt>
      <trkpt lat="44.73421" lon="5.86405">
        <ele>1604.1</ele>
        <time>2015-11-12T10:48:39Z</time>
      </trkpt>
      <trkpt lat="44.73421" lon="5.86405">
        <ele>1604.1</ele>
        <time>2015-11-12T10:49:02Z</time>
      </trkpt>
      <trkpt lat="44.73422" lon="5.86405">
        <ele>1604.1</ele>
        <time>2015-11-12T10:49:32Z</time>
      </trkpt>
      <trkpt lat="44.73421" lon="5.86404">
        <ele>1604.1</ele>
        <time>2015-11-12T10:49:52Z</time>
      </trkpt>
      <trkpt lat="44.73421" lon="5.86402">
        <ele>1604.1</ele>
        <time>2015-11-12T10:50:09Z</time>
      </trkpt>
      <trkpt lat="44.73418" lon="5.864">
        <ele>1604.58</ele>
        <time>2015-11-12T10:50:22Z</time>
      </trkpt>
      <trkpt lat="44.7341" lon="5.86407">
        <ele>1604.1</ele>
        <time>2015-11-12T10:50:35Z</time>
      </trkpt>
      <trkpt lat="44.73408" lon="5.8641">
        <ele>1603.62</ele>
        <time>2015-11-12T10:50:38Z</time>
      </trkpt>
      <trkpt lat="44.73395" lon="5.86407">
        <ele>1603.14</ele>
        <time>2015-11-12T10:50:53Z</time>
      </trkpt>
      <trkpt lat="44.73384" lon="5.86402">
        <ele>1602.66</ele>
        <time>2015-11-12T10:51:06Z</time>
      </trkpt>
      <trkpt lat="44.73379" lon="5.86403">
        <ele>1602.66</ele>
        <time>2015-11-12T10:51:14Z</time>
      </trkpt>
      <trkpt lat="44.73365" lon="5.86395">
        <ele>1602.66</ele>
        <time>2015-11-12T10:51:28Z</time>
      </trkpt>
      <trkpt lat="44.73355" lon="5.86392">
        <ele>1603.14</ele>
        <time>2015-11-12T10:51:40Z</time>
      </trkpt>
      <trkpt lat="44.7335" lon="5.86386">
        <ele>1604.1</ele>
        <time>2015-11-12T10:51:49Z</time>
      </trkpt>
      <trkpt lat="44.73343" lon="5.86376">
        <ele>1606.02</ele>
        <time>2015-11-12T10:52:02Z</time>
      </trkpt>
      <trkpt lat="44.73337" lon="5.86366">
        <ele>1607.94</ele>
        <time>2015-11-12T10:52:16Z</time>
      </trkpt>
      <trkpt lat="44.73334" lon="5.86356">
        <ele>1609.86</ele>
        <time>2015-11-12T10:52:29Z</time>
      </trkpt>
      <trkpt lat="44.73333" lon="5.86348">
        <ele>1611.79</ele>
        <time>2015-11-12T10:52:39Z</time>
      </trkpt>
      <trkpt lat="44.73333" lon="5.8634">
        <ele>1613.71</ele>
        <time>2015-11-12T10:52:50Z</time>
      </trkpt>
      <trkpt lat="44.73338" lon="5.86327">
        <ele>1616.11</ele>
        <time>2015-11-12T10:53:04Z</time>
      </trkpt>
      <trkpt lat="44.73339" lon="5.86321">
        <ele>1618.04</ele>
        <time>2015-11-12T10:53:16Z</time>
      </trkpt>
      <trkpt lat="44.73338" lon="5.86314">
        <ele>1619.96</ele>
        <time>2015-11-12T10:53:28Z</time>
      </trkpt>
      <trkpt lat="44.73338" lon="5.86308">
        <ele>1620.44</ele>
        <time>2015-11-12T10:53:49Z</time>
      </trkpt>
      <trkpt lat="44.73329" lon="5.86297">
        <ele>1623.32</ele>
        <time>2015-11-12T10:54:05Z</time>
      </trkpt>
      <trkpt lat="44.73322" lon="5.86293">
        <ele>1625.25</ele>
        <time>2015-11-12T10:54:16Z</time>
      </trkpt>
      <trkpt lat="44.73313" lon="5.86288">
        <ele>1626.69</ele>
        <time>2015-11-12T10:54:30Z</time>
      </trkpt>
      <trkpt lat="44.73308" lon="5.86287">
        <ele>1627.17</ele>
        <time>2015-11-12T10:54:35Z</time>
      </trkpt>
      <trkpt lat="44.73299" lon="5.86284">
        <ele>1627.65</ele>
        <time>2015-11-12T10:54:48Z</time>
      </trkpt>
      <trkpt lat="44.73291" lon="5.86282">
        <ele>1628.13</ele>
        <time>2015-11-12T10:55:00Z</time>
      </trkpt>
      <trkpt lat="44.73281" lon="5.86279">
        <ele>1628.61</ele>
        <time>2015-11-12T10:55:13Z</time>
      </trkpt>
      <trkpt lat="44.73275" lon="5.86279">
        <ele>1628.13</ele>
        <time>2015-11-12T10:55:22Z</time>
      </trkpt>
      <trkpt lat="44.73265" lon="5.86285">
        <ele>1625.73</ele>
        <time>2015-11-12T10:55:36Z</time>
      </trkpt>
      <trkpt lat="44.73256" lon="5.86289">
        <ele>1626.21</ele>
        <time>2015-11-12T10:55:49Z</time>
      </trkpt>
      <trkpt lat="44.73246" lon="5.86293">
        <ele>1624.77</ele>
        <time>2015-11-12T10:56:04Z</time>
      </trkpt>
      <trkpt lat="44.73235" lon="5.86291">
        <ele>1625.25</ele>
        <time>2015-11-12T10:56:16Z</time>
      </trkpt>
      <trkpt lat="44.73231" lon="5.8629">
        <ele>1625.25</ele>
        <time>2015-11-12T10:56:21Z</time>
      </trkpt>
      <trkpt lat="44.73224" lon="5.86289">
        <ele>1626.21</ele>
        <time>2015-11-12T10:56:32Z</time>
      </trkpt>
      <trkpt lat="44.73214" lon="5.86286">
        <ele>1627.65</ele>
        <time>2015-11-12T10:56:45Z</time>
      </trkpt>
      <trkpt lat="44.73209" lon="5.86284">
        <ele>1628.13</ele>
        <time>2015-11-12T10:56:52Z</time>
      </trkpt>
      <trkpt lat="44.73198" lon="5.86277">
        <ele>1627.65</ele>
        <time>2015-11-12T10:57:07Z</time>
      </trkpt>
      <trkpt lat="44.73192" lon="5.86272">
        <ele>1628.61</ele>
        <time>2015-11-12T10:57:16Z</time>
      </trkpt>
      <trkpt lat="44.73189" lon="5.8627">
        <ele>1629.09</ele>
        <time>2015-11-12T10:57:19Z</time>
      </trkpt>
      <trkpt lat="44.7318" lon="5.86262">
        <ele>1630.05</ele>
        <time>2015-11-12T10:57:32Z</time>
      </trkpt>
      <trkpt lat="44.73172" lon="5.86254">
        <ele>1631.01</ele>
        <time>2015-11-12T10:57:45Z</time>
      </trkpt>
      <trkpt lat="44.73163" lon="5.86248">
        <ele>1631.98</ele>
        <time>2015-11-12T10:57:58Z</time>
      </trkpt>
      <trkpt lat="44.73153" lon="5.86247">
        <ele>1631.49</ele>
        <time>2015-11-12T10:58:12Z</time>
      </trkpt>
      <trkpt lat="44.73146" lon="5.86242">
        <ele>1631.01</ele>
        <time>2015-11-12T10:58:27Z</time>
      </trkpt>
      <trkpt lat="44.73141" lon="5.8624">
        <ele>1630.53</ele>
        <time>2015-11-12T10:58:33Z</time>
      </trkpt>
      <trkpt lat="44.73132" lon="5.86239">
        <ele>1629.09</ele>
        <time>2015-11-12T10:58:47Z</time>
      </trkpt>
      <trkpt lat="44.73126" lon="5.86242">
        <ele>1628.61</ele>
        <time>2015-11-12T10:58:57Z</time>
      </trkpt>
      <trkpt lat="44.73114" lon="5.86246">
        <ele>1629.09</ele>
        <time>2015-11-12T10:59:12Z</time>
      </trkpt>
      <trkpt lat="44.73105" lon="5.86254">
        <ele>1630.53</ele>
        <time>2015-11-12T10:59:24Z</time>
      </trkpt>
      <trkpt lat="44.73099" lon="5.86257">
        <ele>1631.01</ele>
        <time>2015-11-12T10:59:32Z</time>
      </trkpt>
      <trkpt lat="44.73089" lon="5.86256">
        <ele>1630.53</ele>
        <time>2015-11-12T10:59:45Z</time>
      </trkpt>
      <trkpt lat="44.73086" lon="5.86254">
        <ele>1629.57</ele>
        <time>2015-11-12T10:59:50Z</time>
      </trkpt>
      <trkpt lat="44.73074" lon="5.86252">
        <ele>1628.13</ele>
        <time>2015-11-12T11:00:05Z</time>
      </trkpt>
      <trkpt lat="44.73073" lon="5.86252">
        <ele>1628.13</ele>
        <time>2015-11-12T11:00:06Z</time>
      </trkpt>
      <trkpt lat="44.73064" lon="5.86263">
        <ele>1625.25</ele>
        <time>2015-11-12T11:00:20Z</time>
      </trkpt>
      <trkpt lat="44.73063" lon="5.86266">
        <ele>1624.77</ele>
        <time>2015-11-12T11:00:38Z</time>
      </trkpt>
      <trkpt lat="44.73056" lon="5.86278">
        <ele>1623.32</ele>
        <time>2015-11-12T11:00:49Z</time>
      </trkpt>
      <trkpt lat="44.73043" lon="5.86285">
        <ele>1623.8</ele>
        <time>2015-11-12T11:01:04Z</time>
      </trkpt>
      <trkpt lat="44.7304" lon="5.86288">
        <ele>1623.8</ele>
        <time>2015-11-12T11:01:08Z</time>
      </trkpt>
      <trkpt lat="44.73034" lon="5.86294">
        <ele>1622.36</ele>
        <time>2015-11-12T11:01:18Z</time>
      </trkpt>
      <trkpt lat="44.73029" lon="5.863">
        <ele>1620.44</ele>
        <time>2015-11-12T11:01:32Z</time>
      </trkpt>
      <trkpt lat="44.73018" lon="5.86301">
        <ele>1617.56</ele>
        <time>2015-11-12T11:01:45Z</time>
      </trkpt>
      <trkpt lat="44.73007" lon="5.86308">
        <ele>1614.67</ele>
        <time>2015-11-12T11:01:59Z</time>
      </trkpt>
      <trkpt lat="44.72997" lon="5.86314">
        <ele>1611.79</ele>
        <time>2015-11-12T11:02:12Z</time>
      </trkpt>
      <trkpt lat="44.72989" lon="5.8632">
        <ele>1610.35</ele>
        <time>2015-11-12T11:02:24Z</time>
      </trkpt>
      <trkpt lat="44.7298" lon="5.8632">
        <ele>1610.35</ele>
        <time>2015-11-12T11:02:34Z</time>
      </trkpt>
      <trkpt lat="44.72979" lon="5.86316">
        <ele>1610.35</ele>
        <time>2015-11-12T11:02:48Z</time>
      </trkpt>
      <trkpt lat="44.72973" lon="5.86315">
        <ele>1609.86</ele>
        <time>2015-11-12T11:03:05Z</time>
      </trkpt>
      <trkpt lat="44.72972" lon="5.86315">
        <ele>1609.86</ele>
        <time>2015-11-12T11:03:06Z</time>
      </trkpt>
      <trkpt lat="44.72957" lon="5.86322">
        <ele>1607.46</ele>
        <time>2015-11-12T11:03:23Z</time>
      </trkpt>
      <trkpt lat="44.72955" lon="5.86322">
        <ele>1606.98</ele>
        <time>2015-11-12T11:03:27Z</time>
      </trkpt>
      <trkpt lat="44.72951" lon="5.86324">
        <ele>1606.02</ele>
        <time>2015-11-12T11:03:33Z</time>
      </trkpt>
      <trkpt lat="44.72946" lon="5.86326">
        <ele>1605.06</ele>
        <time>2015-11-12T11:03:38Z</time>
      </trkpt>
      <trkpt lat="44.72932" lon="5.86331">
        <ele>1601.69</ele>
        <time>2015-11-12T11:03:55Z</time>
      </trkpt>
      <trkpt lat="44.72926" lon="5.86342">
        <ele>1599.29</ele>
        <time>2015-11-12T11:04:08Z</time>
      </trkpt>
      <trkpt lat="44.72922" lon="5.86357">
        <ele>1597.37</ele>
        <time>2015-11-12T11:04:24Z</time>
      </trkpt>
      <trkpt lat="44.72919" lon="5.8637">
        <ele>1594.48</ele>
        <time>2015-11-12T11:04:39Z</time>
      </trkpt>
      <trkpt lat="44.72919" lon="5.86377">
        <ele>1593.52</ele>
        <time>2015-11-12T11:04:52Z</time>
      </trkpt>
      <trkpt lat="44.72919" lon="5.86378">
        <ele>1593.52</ele>
        <time>2015-11-12T11:05:10Z</time>
      </trkpt>
      <trkpt lat="44.72916" lon="5.86377">
        <ele>1593.52</ele>
        <time>2015-11-12T11:05:22Z</time>
      </trkpt>
      <trkpt lat="44.72916" lon="5.86378">
        <ele>1593.52</ele>
        <time>2015-11-12T11:05:47Z</time>
      </trkpt>
      <trkpt lat="44.72915" lon="5.86377">
        <ele>1593.52</ele>
        <time>2015-11-12T11:06:07Z</time>
      </trkpt>
      <trkpt lat="44.72916" lon="5.86379">
        <ele>1593.04</ele>
        <time>2015-11-12T11:06:21Z</time>
      </trkpt>
      <trkpt lat="44.72916" lon="5.86376">
        <ele>1593.52</ele>
        <time>2015-11-12T11:06:34Z</time>
      </trkpt>
      <trkpt lat="44.72916" lon="5.86376">
        <ele>1593.52</ele>
        <time>2015-11-12T11:06:51Z</time>
      </trkpt>
      <trkpt lat="44.72916" lon="5.86374">
        <ele>1593.52</ele>
        <time>2015-11-12T11:07:20Z</time>
      </trkpt>
      <trkpt lat="44.72917" lon="5.86371">
        <ele>1593.52</ele>
        <time>2015-11-12T11:07:44Z</time>
      </trkpt>
      <trkpt lat="44.7292" lon="5.86368">
        <ele>1593.52</ele>
        <time>2015-11-12T11:08:00Z</time>
      </trkpt>
      <trkpt lat="44.72923" lon="5.8637">
        <ele>1593.52</ele>
        <time>2015-11-12T11:08:25Z</time>
      </trkpt>
      <trkpt lat="44.7292" lon="5.86369">
        <ele>1593.52</ele>
        <time>2015-11-12T11:08:50Z</time>
      </trkpt>
      <trkpt lat="44.7292" lon="5.86368">
        <ele>1593.52</ele>
        <time>2015-11-12T11:09:17Z</time>
      </trkpt>
      <trkpt lat="44.72919" lon="5.86367">
        <ele>1593.52</ele>
        <time>2015-11-12T11:09:57Z</time>
      </trkpt>
      <trkpt lat="44.72919" lon="5.86368">
        <ele>1593.52</ele>
        <time>2015-11-12T11:10:26Z</time>
      </trkpt>
      <trkpt lat="44.72921" lon="5.86369">
        <ele>1593.52</ele>
        <time>2015-11-12T11:11:00Z</time>
      </trkpt>
      <trkpt lat="44.72921" lon="5.86369">
        <ele>1593.52</ele>
        <time>2015-11-12T11:11:30Z</time>
      </trkpt>
      <trkpt lat="44.72921" lon="5.86368">
        <ele>1593.52</ele>
        <time>2015-11-12T11:11:57Z</time>
      </trkpt>
      <trkpt lat="44.72921" lon="5.86367">
        <ele>1593.52</ele>
        <time>2015-11-12T11:12:30Z</time>
      </trkpt>
      <trkpt lat="44.72922" lon="5.86369">
        <ele>1593.52</ele>
        <time>2015-11-12T11:13:04Z</time>
      </trkpt>
      <trkpt lat="44.72922" lon="5.8637">
        <ele>1593.52</ele>
        <time>2015-11-12T11:13:49Z</time>
      </trkpt>
      <trkpt lat="44.72923" lon="5.8637">
        <ele>1593.52</ele>
        <time>2015-11-12T11:14:21Z</time>
      </trkpt>
      <trkpt lat="44.72922" lon="5.86369">
        <ele>1593.52</ele>
        <time>2015-11-12T11:15:02Z</time>
      </trkpt>
      <trkpt lat="44.72923" lon="5.86369">
        <ele>1593.52</ele>
        <time>2015-11-12T11:15:38Z</time>
      </trkpt>
      <trkpt lat="44.72923" lon="5.86369">
        <ele>1593.52</ele>
        <time>2015-11-12T11:16:21Z</time>
      </trkpt>
      <trkpt lat="44.72923" lon="5.86369">
        <ele>1593.52</ele>
        <time>2015-11-12T11:16:56Z</time>
      </trkpt>
      <trkpt lat="44.72923" lon="5.86369">
        <ele>1593.52</ele>
        <time>2015-11-12T11:17:39Z</time>
      </trkpt>
      <trkpt lat="44.72922" lon="5.8637">
        <ele>1593.52</ele>
        <time>2015-11-12T11:18:18Z</time>
      </trkpt>
      <trkpt lat="44.72923" lon="5.86369">
        <ele>1593.52</ele>
        <time>2015-11-12T11:18:48Z</time>
      </trkpt>
      <trkpt lat="44.72923" lon="5.8637">
        <ele>1593.52</ele>
        <time>2015-11-12T11:19:22Z</time>
      </trkpt>
      <trkpt lat="44.72923" lon="5.8637">
        <ele>1593.52</ele>
        <time>2015-11-12T11:20:17Z</time>
      </trkpt>
      <trkpt lat="44.72921" lon="5.8637">
        <ele>1593.04</ele>
        <time>2015-11-12T11:20:48Z</time>
      </trkpt>
      <trkpt lat="44.72921" lon="5.86369">
        <ele>1593.04</ele>
        <time>2015-11-12T11:21:15Z</time>
      </trkpt>
      <trkpt lat="44.72921" lon="5.8637">
        <ele>1593.52</ele>
        <time>2015-11-12T11:21:48Z</time>
      </trkpt>
      <trkpt lat="44.72921" lon="5.8637">
        <ele>1593.52</ele>
        <time>2015-11-12T11:22:15Z</time>
      </trkpt>
      <trkpt lat="44.7292" lon="5.8637">
        <ele>1593.52</ele>
        <time>2015-11-12T11:22:41Z</time>
      </trkpt>
      <trkpt lat="44.72921" lon="5.86369">
        <ele>1593.52</ele>
        <time>2015-11-12T11:23:10Z</time>
      </trkpt>
      <trkpt lat="44.7292" lon="5.86369">
        <ele>1593.52</ele>
        <time>2015-11-12T11:23:40Z</time>
      </trkpt>
      <trkpt lat="44.72922" lon="5.8637">
        <ele>1593.52</ele>
        <time>2015-11-12T11:24:11Z</time>
      </trkpt>
      <trkpt lat="44.7292" lon="5.86371">
        <ele>1593.52</ele>
        <time>2015-11-12T11:24:38Z</time>
      </trkpt>
      <trkpt lat="44.72921" lon="5.86371">
        <ele>1593.52</ele>
        <time>2015-11-12T11:25:04Z</time>
      </trkpt>
      <trkpt lat="44.72921" lon="5.86371">
        <ele>1593.52</ele>
        <time>2015-11-12T11:25:31Z</time>
      </trkpt>
      <trkpt lat="44.7292" lon="5.8637">
        <ele>1593.52</ele>
        <time>2015-11-12T11:26:02Z</time>
      </trkpt>
      <trkpt lat="44.72921" lon="5.86372">
        <ele>1593.52</ele>
        <time>2015-11-12T11:26:35Z</time>
      </trkpt>
      <trkpt lat="44.72921" lon="5.86371">
        <ele>1594</ele>
        <time>2015-11-12T11:27:04Z</time>
      </trkpt>
      <trkpt lat="44.72921" lon="5.86369">
        <ele>1593.52</ele>
        <time>2015-11-12T11:27:34Z</time>
      </trkpt>
      <trkpt lat="44.72921" lon="5.8637">
        <ele>1593.52</ele>
        <time>2015-11-12T11:28:02Z</time>
      </trkpt>
      <trkpt lat="44.72921" lon="5.86369">
        <ele>1594</ele>
        <time>2015-11-12T11:28:30Z</time>
      </trkpt>
      <trkpt lat="44.72921" lon="5.8637">
        <ele>1594</ele>
        <time>2015-11-12T11:28:57Z</time>
      </trkpt>
      <trkpt lat="44.7292" lon="5.86369">
        <ele>1594</ele>
        <time>2015-11-12T11:29:32Z</time>
      </trkpt>
      <trkpt lat="44.7292" lon="5.8637">
        <ele>1594</ele>
        <time>2015-11-12T11:29:54Z</time>
      </trkpt>
      <trkpt lat="44.7292" lon="5.8637">
        <ele>1594</ele>
        <time>2015-11-12T11:30:19Z</time>
      </trkpt>
      <trkpt lat="44.7292" lon="5.86371">
        <ele>1594</ele>
        <time>2015-11-12T11:30:43Z</time>
      </trkpt>
      <trkpt lat="44.72921" lon="5.86369">
        <ele>1593.52</ele>
        <time>2015-11-12T11:31:10Z</time>
      </trkpt>
      <trkpt lat="44.72921" lon="5.8637">
        <ele>1594</ele>
        <time>2015-11-12T11:31:44Z</time>
      </trkpt>
      <trkpt lat="44.72921" lon="5.8637">
        <ele>1594</ele>
        <time>2015-11-12T11:32:16Z</time>
      </trkpt>
      <trkpt lat="44.72921" lon="5.8637">
        <ele>1594</ele>
        <time>2015-11-12T11:32:49Z</time>
      </trkpt>
      <trkpt lat="44.7292" lon="5.8637">
        <ele>1594</ele>
        <time>2015-11-12T11:33:27Z</time>
      </trkpt>
      <trkpt lat="44.7292" lon="5.86371">
        <ele>1594</ele>
        <time>2015-11-12T11:34:04Z</time>
      </trkpt>
      <trkpt lat="44.72921" lon="5.8637">
        <ele>1594.96</ele>
        <time>2015-11-12T11:34:31Z</time>
      </trkpt>
      <trkpt lat="44.72921" lon="5.8637">
        <ele>1594</ele>
        <time>2015-11-12T11:35:04Z</time>
      </trkpt>
      <trkpt lat="44.7292" lon="5.86371">
        <ele>1594</ele>
        <time>2015-11-12T11:35:31Z</time>
      </trkpt>
      <trkpt lat="44.7292" lon="5.86371">
        <ele>1594</ele>
        <time>2015-11-12T11:36:06Z</time>
      </trkpt>
      <trkpt lat="44.72921" lon="5.8637">
        <ele>1594</ele>
        <time>2015-11-12T11:36:30Z</time>
      </trkpt>
      <trkpt lat="44.7292" lon="5.86371">
        <ele>1594</ele>
        <time>2015-11-12T11:36:54Z</time>
      </trkpt>
      <trkpt lat="44.7292" lon="5.8637">
        <ele>1594</ele>
        <time>2015-11-12T11:37:20Z</time>
      </trkpt>
      <trkpt lat="44.72919" lon="5.86369">
        <ele>1594</ele>
        <time>2015-11-12T11:37:47Z</time>
      </trkpt>
      <trkpt lat="44.72919" lon="5.8637">
        <ele>1594</ele>
        <time>2015-11-12T11:38:06Z</time>
      </trkpt>
      <trkpt lat="44.7292" lon="5.8637">
        <ele>1594</ele>
        <time>2015-11-12T11:38:35Z</time>
      </trkpt>
      <trkpt lat="44.7292" lon="5.86371">
        <ele>1594</ele>
        <time>2015-11-12T11:39:01Z</time>
      </trkpt>
      <trkpt lat="44.72921" lon="5.86371">
        <ele>1594</ele>
        <time>2015-11-12T11:39:41Z</time>
      </trkpt>
      <trkpt lat="44.72921" lon="5.8637">
        <ele>1594</ele>
        <time>2015-11-12T11:40:07Z</time>
      </trkpt>
      <trkpt lat="44.72921" lon="5.8637">
        <ele>1595.45</ele>
        <time>2015-11-12T11:40:34Z</time>
      </trkpt>
      <trkpt lat="44.72921" lon="5.86371">
        <ele>1594.48</ele>
        <time>2015-11-12T11:41:12Z</time>
      </trkpt>
      <trkpt lat="44.7292" lon="5.8637">
        <ele>1594</ele>
        <time>2015-11-12T11:41:39Z</time>
      </trkpt>
      <trkpt lat="44.7292" lon="5.86371">
        <ele>1594</ele>
        <time>2015-11-12T11:42:15Z</time>
      </trkpt>
      <trkpt lat="44.7292" lon="5.86372">
        <ele>1594.48</ele>
        <time>2015-11-12T11:42:33Z</time>
      </trkpt>
      <trkpt lat="44.7292" lon="5.86371">
        <ele>1594.48</ele>
        <time>2015-11-12T11:42:54Z</time>
      </trkpt>
      <trkpt lat="44.7292" lon="5.8637">
        <ele>1594.48</ele>
        <time>2015-11-12T11:43:22Z</time>
      </trkpt>
      <trkpt lat="44.7292" lon="5.86371">
        <ele>1594.48</ele>
        <time>2015-11-12T11:43:53Z</time>
      </trkpt>
      <trkpt lat="44.72921" lon="5.86372">
        <ele>1594.48</ele>
        <time>2015-11-12T11:44:19Z</time>
      </trkpt>
      <trkpt lat="44.72921" lon="5.86371">
        <ele>1594.48</ele>
        <time>2015-11-12T11:44:39Z</time>
      </trkpt>
      <trkpt lat="44.72921" lon="5.86371">
        <ele>1594.48</ele>
        <time>2015-11-12T11:45:04Z</time>
      </trkpt>
      <trkpt lat="44.7292" lon="5.8637">
        <ele>1594.48</ele>
        <time>2015-11-12T11:45:36Z</time>
      </trkpt>
      <trkpt lat="44.72921" lon="5.86372">
        <ele>1594.48</ele>
        <time>2015-11-12T11:46:04Z</time>
      </trkpt>
      <trkpt lat="44.72921" lon="5.86371">
        <ele>1594.48</ele>
        <time>2015-11-12T11:46:36Z</time>
      </trkpt>
      <trkpt lat="44.7292" lon="5.8637">
        <ele>1594.48</ele>
        <time>2015-11-12T11:47:04Z</time>
      </trkpt>
      <trkpt lat="44.7292" lon="5.86371">
        <ele>1594.48</ele>
        <time>2015-11-12T11:47:33Z</time>
      </trkpt>
      <trkpt lat="44.7292" lon="5.8637">
        <ele>1594.48</ele>
        <time>2015-11-12T11:47:58Z</time>
      </trkpt>
      <trkpt lat="44.7292" lon="5.86371">
        <ele>1594.48</ele>
        <time>2015-11-12T11:48:19Z</time>
      </trkpt>
      <trkpt lat="44.7292" lon="5.8637">
        <ele>1594.48</ele>
        <time>2015-11-12T11:48:47Z</time>
      </trkpt>
      <trkpt lat="44.7292" lon="5.86371">
        <ele>1594.48</ele>
        <time>2015-11-12T11:49:16Z</time>
      </trkpt>
      <trkpt lat="44.72921" lon="5.86372">
        <ele>1594.48</ele>
        <time>2015-11-12T11:49:37Z</time>
      </trkpt>
      <trkpt lat="44.7292" lon="5.8637">
        <ele>1594.48</ele>
        <time>2015-11-12T11:50:00Z</time>
      </trkpt>
      <trkpt lat="44.7292" lon="5.8637">
        <ele>1594.48</ele>
        <time>2015-11-12T11:50:36Z</time>
      </trkpt>
      <trkpt lat="44.72921" lon="5.86371">
        <ele>1594.48</ele>
        <time>2015-11-12T11:51:06Z</time>
      </trkpt>
      <trkpt lat="44.7292" lon="5.86371">
        <ele>1594.48</ele>
        <time>2015-11-12T11:51:47Z</time>
      </trkpt>
      <trkpt lat="44.7292" lon="5.86372">
        <ele>1594.48</ele>
        <time>2015-11-12T11:52:17Z</time>
      </trkpt>
      <trkpt lat="44.7292" lon="5.86371">
        <ele>1594.48</ele>
        <time>2015-11-12T11:52:50Z</time>
      </trkpt>
      <trkpt lat="44.72921" lon="5.8637">
        <ele>1594.48</ele>
        <time>2015-11-12T11:53:24Z</time>
      </trkpt>
      <trkpt lat="44.72921" lon="5.86371">
        <ele>1594.48</ele>
        <time>2015-11-12T11:53:53Z</time>
      </trkpt>
      <trkpt lat="44.72921" lon="5.86372">
        <ele>1594</ele>
        <time>2015-11-12T11:54:21Z</time>
      </trkpt>
      <trkpt lat="44.72921" lon="5.86371">
        <ele>1594.48</ele>
        <time>2015-11-12T11:54:55Z</time>
      </trkpt>
      <trkpt lat="44.72921" lon="5.86372">
        <ele>1594.48</ele>
        <time>2015-11-12T11:55:25Z</time>
      </trkpt>
      <trkpt lat="44.7292" lon="5.86372">
        <ele>1594</ele>
        <time>2015-11-12T11:55:55Z</time>
      </trkpt>
      <trkpt lat="44.7292" lon="5.86372">
        <ele>1594</ele>
        <time>2015-11-12T11:56:23Z</time>
      </trkpt>
      <trkpt lat="44.72921" lon="5.86371">
        <ele>1594</ele>
        <time>2015-11-12T11:56:51Z</time>
      </trkpt>
      <trkpt lat="44.72921" lon="5.86371">
        <ele>1594</ele>
        <time>2015-11-12T11:57:19Z</time>
      </trkpt>
      <trkpt lat="44.72922" lon="5.8637">
        <ele>1594</ele>
        <time>2015-11-12T11:57:48Z</time>
      </trkpt>
      <trkpt lat="44.72922" lon="5.8637">
        <ele>1593.52</ele>
        <time>2015-11-12T11:58:13Z</time>
      </trkpt>
      <trkpt lat="44.72921" lon="5.8637">
        <ele>1594</ele>
        <time>2015-11-12T11:58:45Z</time>
      </trkpt>
      <trkpt lat="44.72922" lon="5.86371">
        <ele>1593.52</ele>
        <time>2015-11-12T11:59:17Z</time>
      </trkpt>
      <trkpt lat="44.72921" lon="5.86373">
        <ele>1593.52</ele>
        <time>2015-11-12T11:59:42Z</time>
      </trkpt>
      <trkpt lat="44.72922" lon="5.86371">
        <ele>1593.04</ele>
        <time>2015-11-12T12:00:07Z</time>
      </trkpt>
      <trkpt lat="44.72923" lon="5.86369">
        <ele>1593.52</ele>
        <time>2015-11-12T12:00:43Z</time>
      </trkpt>
      <trkpt lat="44.72923" lon="5.86368">
        <ele>1593.04</ele>
        <time>2015-11-12T12:01:11Z</time>
      </trkpt>
      <trkpt lat="44.72923" lon="5.86367">
        <ele>1593.04</ele>
        <time>2015-11-12T12:01:30Z</time>
      </trkpt>
      <trkpt lat="44.7292" lon="5.86367">
        <ele>1593.04</ele>
        <time>2015-11-12T12:01:51Z</time>
      </trkpt>
      <trkpt lat="44.72919" lon="5.86368">
        <ele>1593.04</ele>
        <time>2015-11-12T12:02:24Z</time>
      </trkpt>
      <trkpt lat="44.7292" lon="5.86368">
        <ele>1593.04</ele>
        <time>2015-11-12T12:02:45Z</time>
      </trkpt>
      <trkpt lat="44.7292" lon="5.86368">
        <ele>1593.04</ele>
        <time>2015-11-12T12:03:11Z</time>
      </trkpt>
      <trkpt lat="44.72919" lon="5.86372">
        <ele>1593.04</ele>
        <time>2015-11-12T12:03:37Z</time>
      </trkpt>
      <trkpt lat="44.72919" lon="5.8637">
        <ele>1593.04</ele>
        <time>2015-11-12T12:03:57Z</time>
      </trkpt>
      <trkpt lat="44.72918" lon="5.86372">
        <ele>1593.04</ele>
        <time>2015-11-12T12:04:19Z</time>
      </trkpt>
      <trkpt lat="44.72919" lon="5.86371">
        <ele>1593.04</ele>
        <time>2015-11-12T12:04:41Z</time>
      </trkpt>
      <trkpt lat="44.72919" lon="5.86371">
        <ele>1593.04</ele>
        <time>2015-11-12T12:05:09Z</time>
      </trkpt>
      <trkpt lat="44.72918" lon="5.86371">
        <ele>1593.04</ele>
        <time>2015-11-12T12:05:42Z</time>
      </trkpt>
      <trkpt lat="44.72918" lon="5.86369">
        <ele>1593.04</ele>
        <time>2015-11-12T12:06:12Z</time>
      </trkpt>
      <trkpt lat="44.72918" lon="5.86369">
        <ele>1593.04</ele>
        <time>2015-11-12T12:06:44Z</time>
      </trkpt>
      <trkpt lat="44.72919" lon="5.86369">
        <ele>1593.52</ele>
        <time>2015-11-12T12:07:16Z</time>
      </trkpt>
      <trkpt lat="44.72919" lon="5.86368">
        <ele>1593.04</ele>
        <time>2015-11-12T12:07:50Z</time>
      </trkpt>
      <trkpt lat="44.72919" lon="5.86368">
        <ele>1593.52</ele>
        <time>2015-11-12T12:08:18Z</time>
      </trkpt>
      <trkpt lat="44.7292" lon="5.8637">
        <ele>1593.52</ele>
        <time>2015-11-12T12:08:37Z</time>
      </trkpt>
      <trkpt lat="44.72921" lon="5.8637">
        <ele>1593.52</ele>
        <time>2015-11-12T12:09:10Z</time>
      </trkpt>
      <trkpt lat="44.7292" lon="5.86371">
        <ele>1593.52</ele>
        <time>2015-11-12T12:09:44Z</time>
      </trkpt>
      <trkpt lat="44.72922" lon="5.86371">
        <ele>1593.52</ele>
        <time>2015-11-12T12:10:22Z</time>
      </trkpt>
      <trkpt lat="44.72922" lon="5.86369">
        <ele>1593.52</ele>
        <time>2015-11-12T12:10:55Z</time>
      </trkpt>
      <trkpt lat="44.72921" lon="5.8637">
        <ele>1593.52</ele>
        <time>2015-11-12T12:11:30Z</time>
      </trkpt>
      <trkpt lat="44.72921" lon="5.86371">
        <ele>1594</ele>
        <time>2015-11-12T12:12:04Z</time>
      </trkpt>
      <trkpt lat="44.72922" lon="5.86369">
        <ele>1594</ele>
        <time>2015-11-12T12:12:31Z</time>
      </trkpt>
      <trkpt lat="44.72922" lon="5.8637">
        <ele>1593.52</ele>
        <time>2015-11-12T12:13:00Z</time>
      </trkpt>
      <trkpt lat="44.72923" lon="5.8637">
        <ele>1594</ele>
        <time>2015-11-12T12:13:32Z</time>
      </trkpt>
      <trkpt lat="44.72923" lon="5.86371">
        <ele>1593.52</ele>
        <time>2015-11-12T12:14:03Z</time>
      </trkpt>
      <trkpt lat="44.72923" lon="5.8637">
        <ele>1594</ele>
        <time>2015-11-12T12:14:28Z</time>
      </trkpt>
      <trkpt lat="44.72922" lon="5.86371">
        <ele>1594</ele>
        <time>2015-11-12T12:15:02Z</time>
      </trkpt>
      <trkpt lat="44.72922" lon="5.86369">
        <ele>1594</ele>
        <time>2015-11-12T12:15:34Z</time>
      </trkpt>
      <trkpt lat="44.72922" lon="5.86371">
        <ele>1594</ele>
        <time>2015-11-12T12:16:03Z</time>
      </trkpt>
      <trkpt lat="44.72921" lon="5.86371">
        <ele>1594</ele>
        <time>2015-11-12T12:16:40Z</time>
      </trkpt>
      <trkpt lat="44.72923" lon="5.8637">
        <ele>1594</ele>
        <time>2015-11-12T12:17:14Z</time>
      </trkpt>
      <trkpt lat="44.72922" lon="5.86371">
        <ele>1594</ele>
        <time>2015-11-12T12:17:42Z</time>
      </trkpt>
      <trkpt lat="44.72923" lon="5.86371">
        <ele>1594</ele>
        <time>2015-11-12T12:18:15Z</time>
      </trkpt>
      <trkpt lat="44.72923" lon="5.86371">
        <ele>1594</ele>
        <time>2015-11-12T12:18:48Z</time>
      </trkpt>
      <trkpt lat="44.7292" lon="5.86373">
        <ele>1594</ele>
        <time>2015-11-12T12:19:29Z</time>
      </trkpt>
      <trkpt lat="44.7292" lon="5.86372">
        <ele>1594</ele>
        <time>2015-11-12T12:20:06Z</time>
      </trkpt>
      <trkpt lat="44.7292" lon="5.86371">
        <ele>1594</ele>
        <time>2015-11-12T12:20:33Z</time>
      </trkpt>
      <trkpt lat="44.72921" lon="5.86372">
        <ele>1594</ele>
        <time>2015-11-12T12:21:10Z</time>
      </trkpt>
      <trkpt lat="44.7292" lon="5.86372">
        <ele>1594</ele>
        <time>2015-11-12T12:21:45Z</time>
      </trkpt>
      <trkpt lat="44.72921" lon="5.86371">
        <ele>1594</ele>
        <time>2015-11-12T12:22:24Z</time>
      </trkpt>
      <trkpt lat="44.72921" lon="5.86372">
        <ele>1594</ele>
        <time>2015-11-12T12:23:05Z</time>
      </trkpt>
      <trkpt lat="44.72921" lon="5.86371">
        <ele>1594</ele>
        <time>2015-11-12T12:23:45Z</time>
      </trkpt>
      <trkpt lat="44.72921" lon="5.86372">
        <ele>1593.52</ele>
        <time>2015-11-12T12:24:26Z</time>
      </trkpt>
      <trkpt lat="44.72922" lon="5.86373">
        <ele>1594</ele>
        <time>2015-11-12T12:25:02Z</time>
      </trkpt>
      <trkpt lat="44.72921" lon="5.86372">
        <ele>1594</ele>
        <time>2015-11-12T12:25:42Z</time>
      </trkpt>
      <trkpt lat="44.72921" lon="5.86371">
        <ele>1594</ele>
        <time>2015-11-12T12:26:12Z</time>
      </trkpt>
      <trkpt lat="44.72919" lon="5.86372">
        <ele>1594</ele>
        <time>2015-11-12T12:26:46Z</time>
      </trkpt>
      <trkpt lat="44.7292" lon="5.86375">
        <ele>1594.48</ele>
        <time>2015-11-12T12:27:08Z</time>
      </trkpt>
      <trkpt lat="44.72919" lon="5.86374">
        <ele>1594.96</ele>
        <time>2015-11-12T12:27:23Z</time>
      </trkpt>
      <trkpt lat="44.72916" lon="5.86377">
        <ele>1594</ele>
        <time>2015-11-12T12:27:34Z</time>
      </trkpt>
      <trkpt lat="44.72914" lon="5.86374">
        <ele>1594</ele>
        <time>2015-11-12T12:27:47Z</time>
      </trkpt>
      <trkpt lat="44.72915" lon="5.86376">
        <ele>1594</ele>
        <time>2015-11-12T12:28:10Z</time>
      </trkpt>
      <trkpt lat="44.72915" lon="5.86376">
        <ele>1594</ele>
        <time>2015-11-12T12:28:32Z</time>
      </trkpt>
      <trkpt lat="44.72914" lon="5.86376">
        <ele>1594</ele>
        <time>2015-11-12T12:28:50Z</time>
      </trkpt>
      <trkpt lat="44.72914" lon="5.86375">
        <ele>1594</ele>
        <time>2015-11-12T12:29:07Z</time>
      </trkpt>
      <trkpt lat="44.72914" lon="5.86372">
        <ele>1594</ele>
        <time>2015-11-12T12:29:28Z</time>
      </trkpt>
      <trkpt lat="44.72915" lon="5.86372">
        <ele>1594</ele>
        <time>2015-11-12T12:29:55Z</time>
      </trkpt>
      <trkpt lat="44.72912" lon="5.86376">
        <ele>1594</ele>
        <time>2015-11-12T12:30:12Z</time>
      </trkpt>
      <trkpt lat="44.72913" lon="5.86375">
        <ele>1594</ele>
        <time>2015-11-12T12:30:25Z</time>
      </trkpt>
      <trkpt lat="44.72914" lon="5.86377">
        <ele>1594</ele>
        <time>2015-11-12T12:30:42Z</time>
      </trkpt>
      <trkpt lat="44.72908" lon="5.86385">
        <ele>1593.04</ele>
        <time>2015-11-12T12:30:55Z</time>
      </trkpt>
      <trkpt lat="44.72901" lon="5.86395">
        <ele>1592.08</ele>
        <time>2015-11-12T12:31:09Z</time>
      </trkpt>
      <trkpt lat="44.72907" lon="5.86399">
        <ele>1592.08</ele>
        <time>2015-11-12T12:31:21Z</time>
      </trkpt>
      <trkpt lat="44.7291" lon="5.86407">
        <ele>1591.6</ele>
        <time>2015-11-12T12:31:34Z</time>
      </trkpt>
      <trkpt lat="44.72903" lon="5.86416">
        <ele>1589.68</ele>
        <time>2015-11-12T12:31:48Z</time>
      </trkpt>
      <trkpt lat="44.72896" lon="5.86424">
        <ele>1588.72</ele>
        <time>2015-11-12T12:32:03Z</time>
      </trkpt>
      <trkpt lat="44.72891" lon="5.86439">
        <ele>1585.35</ele>
        <time>2015-11-12T12:32:19Z</time>
      </trkpt>
      <trkpt lat="44.72882" lon="5.86449">
        <ele>1583.43</ele>
        <time>2015-11-12T12:32:35Z</time>
      </trkpt>
      <trkpt lat="44.72876" lon="5.8646">
        <ele>1581.03</ele>
        <time>2015-11-12T12:32:48Z</time>
      </trkpt>
      <trkpt lat="44.7287" lon="5.86472">
        <ele>1578.14</ele>
        <time>2015-11-12T12:33:03Z</time>
      </trkpt>
      <trkpt lat="44.72865" lon="5.86481">
        <ele>1576.22</ele>
        <time>2015-11-12T12:33:16Z</time>
      </trkpt>
      <trkpt lat="44.72858" lon="5.86487">
        <ele>1573.33</ele>
        <time>2015-11-12T12:33:29Z</time>
      </trkpt>
      <trkpt lat="44.72852" lon="5.86497">
        <ele>1570.45</ele>
        <time>2015-11-12T12:33:43Z</time>
      </trkpt>
      <trkpt lat="44.72845" lon="5.86506">
        <ele>1567.57</ele>
        <time>2015-11-12T12:33:57Z</time>
      </trkpt>
      <trkpt lat="44.72838" lon="5.8651">
        <ele>1565.16</ele>
        <time>2015-11-12T12:34:08Z</time>
      </trkpt>
      <trkpt lat="44.72832" lon="5.86518">
        <ele>1562.28</ele>
        <time>2015-11-12T12:34:22Z</time>
      </trkpt>
      <trkpt lat="44.72826" lon="5.86525">
        <ele>1559.4</ele>
        <time>2015-11-12T12:34:34Z</time>
      </trkpt>
      <trkpt lat="44.72819" lon="5.86531">
        <ele>1557.47</ele>
        <time>2015-11-12T12:34:46Z</time>
      </trkpt>
      <trkpt lat="44.72822" lon="5.86545">
        <ele>1556.03</ele>
        <time>2015-11-12T12:35:01Z</time>
      </trkpt>
      <trkpt lat="44.72824" lon="5.86548">
        <ele>1554.59</ele>
        <time>2015-11-12T12:35:04Z</time>
      </trkpt>
      <trkpt lat="44.72829" lon="5.86561">
        <ele>1552.67</ele>
        <time>2015-11-12T12:35:20Z</time>
      </trkpt>
      <trkpt lat="44.72832" lon="5.86565">
        <ele>1551.71</ele>
        <time>2015-11-12T12:35:25Z</time>
      </trkpt>
      <trkpt lat="44.72839" lon="5.86579">
        <ele>1550.26</ele>
        <time>2015-11-12T12:35:41Z</time>
      </trkpt>
      <trkpt lat="44.72845" lon="5.86592">
        <ele>1548.34</ele>
        <time>2015-11-12T12:35:55Z</time>
      </trkpt>
      <trkpt lat="44.72845" lon="5.86609">
        <ele>1545.46</ele>
        <time>2015-11-12T12:36:11Z</time>
      </trkpt>
      <trkpt lat="44.72844" lon="5.86613">
        <ele>1544.5</ele>
        <time>2015-11-12T12:36:15Z</time>
      </trkpt>
      <trkpt lat="44.72837" lon="5.86617">
        <ele>1542.57</ele>
        <time>2015-11-12T12:36:29Z</time>
      </trkpt>
      <trkpt lat="44.72831" lon="5.86618">
        <ele>1541.61</ele>
        <time>2015-11-12T12:36:42Z</time>
      </trkpt>
      <trkpt lat="44.72822" lon="5.86621">
        <ele>1538.73</ele>
        <time>2015-11-12T12:36:56Z</time>
      </trkpt>
      <trkpt lat="44.72819" lon="5.86621">
        <ele>1537.77</ele>
        <time>2015-11-12T12:37:00Z</time>
      </trkpt>
      <trkpt lat="44.72812" lon="5.86628">
        <ele>1534.88</ele>
        <time>2015-11-12T12:37:11Z</time>
      </trkpt>
      <trkpt lat="44.72805" lon="5.86637">
        <ele>1532</ele>
        <time>2015-11-12T12:37:25Z</time>
      </trkpt>
      <trkpt lat="44.72797" lon="5.86649">
        <ele>1528.63</ele>
        <time>2015-11-12T12:37:41Z</time>
      </trkpt>
      <trkpt lat="44.72795" lon="5.86669">
        <ele>1525.75</ele>
        <time>2015-11-12T12:37:59Z</time>
      </trkpt>
      <trkpt lat="44.72795" lon="5.86684">
        <ele>1523.35</ele>
        <time>2015-11-12T12:38:15Z</time>
      </trkpt>
      <trkpt lat="44.728" lon="5.86701">
        <ele>1520.46</ele>
        <time>2015-11-12T12:38:30Z</time>
      </trkpt>
      <trkpt lat="44.728" lon="5.86708">
        <ele>1519.5</ele>
        <time>2015-11-12T12:38:35Z</time>
      </trkpt>
      <trkpt lat="44.72801" lon="5.86712">
        <ele>1519.02</ele>
        <time>2015-11-12T12:38:39Z</time>
      </trkpt>
      <trkpt lat="44.728" lon="5.86731">
        <ele>1517.58</ele>
        <time>2015-11-12T12:38:55Z</time>
      </trkpt>
      <trkpt lat="44.72796" lon="5.86748">
        <ele>1514.69</ele>
        <time>2015-11-12T12:39:12Z</time>
      </trkpt>
      <trkpt lat="44.72784" lon="5.86753">
        <ele>1512.77</ele>
        <time>2015-11-12T12:39:27Z</time>
      </trkpt>
      <trkpt lat="44.72782" lon="5.86754">
        <ele>1512.29</ele>
        <time>2015-11-12T12:39:31Z</time>
      </trkpt>
      <trkpt lat="44.72782" lon="5.8677">
        <ele>1510.85</ele>
        <time>2015-11-12T12:39:46Z</time>
      </trkpt>
      <trkpt lat="44.72789" lon="5.86788">
        <ele>1508.93</ele>
        <time>2015-11-12T12:40:04Z</time>
      </trkpt>
      <trkpt lat="44.7279" lon="5.86804">
        <ele>1506.52</ele>
        <time>2015-11-12T12:40:19Z</time>
      </trkpt>
      <trkpt lat="44.72783" lon="5.86816">
        <ele>1504.12</ele>
        <time>2015-11-12T12:40:33Z</time>
      </trkpt>
      <trkpt lat="44.72788" lon="5.86831">
        <ele>1501.72</ele>
        <time>2015-11-12T12:40:48Z</time>
      </trkpt>
      <trkpt lat="44.72791" lon="5.86841">
        <ele>1500.27</ele>
        <time>2015-11-12T12:40:58Z</time>
      </trkpt>
      <trkpt lat="44.72798" lon="5.8686">
        <ele>1498.35</ele>
        <time>2015-11-12T12:41:15Z</time>
      </trkpt>
      <trkpt lat="44.72803" lon="5.86876">
        <ele>1496.91</ele>
        <time>2015-11-12T12:41:31Z</time>
      </trkpt>
      <trkpt lat="44.72811" lon="5.86886">
        <ele>1494.99</ele>
        <time>2015-11-12T12:41:45Z</time>
      </trkpt>
      <trkpt lat="44.7282" lon="5.86899">
        <ele>1494.51</ele>
        <time>2015-11-12T12:42:01Z</time>
      </trkpt>
      <trkpt lat="44.72834" lon="5.86905">
        <ele>1493.55</ele>
        <time>2015-11-12T12:42:20Z</time>
      </trkpt>
      <trkpt lat="44.72834" lon="5.86905">
        <ele>1493.06</ele>
        <time>2015-11-12T12:42:21Z</time>
      </trkpt>
      <trkpt lat="44.72845" lon="5.86912">
        <ele>1492.1</ele>
        <time>2015-11-12T12:42:36Z</time>
      </trkpt>
      <trkpt lat="44.72848" lon="5.86916">
        <ele>1491.62</ele>
        <time>2015-11-12T12:42:40Z</time>
      </trkpt>
      <trkpt lat="44.72857" lon="5.86933">
        <ele>1492.1</ele>
        <time>2015-11-12T12:42:57Z</time>
      </trkpt>
      <trkpt lat="44.72852" lon="5.86946">
        <ele>1490.66</ele>
        <time>2015-11-12T12:43:10Z</time>
      </trkpt>
      <trkpt lat="44.72849" lon="5.86967">
        <ele>1489.22</ele>
        <time>2015-11-12T12:43:27Z</time>
      </trkpt>
      <trkpt lat="44.72846" lon="5.86985">
        <ele>1488.26</ele>
        <time>2015-11-12T12:43:43Z</time>
      </trkpt>
      <trkpt lat="44.72841" lon="5.86997">
        <ele>1485.37</ele>
        <time>2015-11-12T12:43:58Z</time>
      </trkpt>
      <trkpt lat="44.72838" lon="5.87008">
        <ele>1482.97</ele>
        <time>2015-11-12T12:44:10Z</time>
      </trkpt>
      <trkpt lat="44.72836" lon="5.87021">
        <ele>1481.05</ele>
        <time>2015-11-12T12:44:23Z</time>
      </trkpt>
      <trkpt lat="44.72836" lon="5.87042">
        <ele>1479.61</ele>
        <time>2015-11-12T12:44:40Z</time>
      </trkpt>
      <trkpt lat="44.72832" lon="5.87061">
        <ele>1478.65</ele>
        <time>2015-11-12T12:44:56Z</time>
      </trkpt>
      <trkpt lat="44.72831" lon="5.87068">
        <ele>1478.65</ele>
        <time>2015-11-12T12:45:01Z</time>
      </trkpt>
      <trkpt lat="44.72824" lon="5.87087">
        <ele>1477.2</ele>
        <time>2015-11-12T12:45:19Z</time>
      </trkpt>
      <trkpt lat="44.72819" lon="5.87104">
        <ele>1475.76</ele>
        <time>2015-11-12T12:45:35Z</time>
      </trkpt>
      <trkpt lat="44.72811" lon="5.87122">
        <ele>1474.8</ele>
        <time>2015-11-12T12:45:52Z</time>
      </trkpt>
      <trkpt lat="44.72804" lon="5.87137">
        <ele>1473.84</ele>
        <time>2015-11-12T12:46:09Z</time>
      </trkpt>
      <trkpt lat="44.72802" lon="5.87144">
        <ele>1473.84</ele>
        <time>2015-11-12T12:46:20Z</time>
      </trkpt>
      <trkpt lat="44.72798" lon="5.87153">
        <ele>1473.36</ele>
        <time>2015-11-12T12:46:31Z</time>
      </trkpt>
      <trkpt lat="44.72795" lon="5.87176">
        <ele>1471.92</ele>
        <time>2015-11-12T12:46:48Z</time>
      </trkpt>
      <trkpt lat="44.72794" lon="5.87194">
        <ele>1470.47</ele>
        <time>2015-11-12T12:47:02Z</time>
      </trkpt>
      <trkpt lat="44.72792" lon="5.87212">
        <ele>1468.55</ele>
        <time>2015-11-12T12:47:17Z</time>
      </trkpt>
      <trkpt lat="44.7279" lon="5.87233">
        <ele>1467.11</ele>
        <time>2015-11-12T12:47:34Z</time>
      </trkpt>
      <trkpt lat="44.72789" lon="5.87247">
        <ele>1466.15</ele>
        <time>2015-11-12T12:47:48Z</time>
      </trkpt>
      <trkpt lat="44.72789" lon="5.87265">
        <ele>1465.67</ele>
        <time>2015-11-12T12:48:05Z</time>
      </trkpt>
      <trkpt lat="44.72788" lon="5.87287">
        <ele>1464.71</ele>
        <time>2015-11-12T12:48:25Z</time>
      </trkpt>
      <trkpt lat="44.72787" lon="5.87304">
        <ele>1463.26</ele>
        <time>2015-11-12T12:48:39Z</time>
      </trkpt>
      <trkpt lat="44.72785" lon="5.87318">
        <ele>1461.82</ele>
        <time>2015-11-12T12:48:54Z</time>
      </trkpt>
      <trkpt lat="44.72781" lon="5.87338">
        <ele>1459.9</ele>
        <time>2015-11-12T12:49:11Z</time>
      </trkpt>
      <trkpt lat="44.72777" lon="5.87362">
        <ele>1458.46</ele>
        <time>2015-11-12T12:49:31Z</time>
      </trkpt>
      <trkpt lat="44.72772" lon="5.87383">
        <ele>1457.5</ele>
        <time>2015-11-12T12:49:49Z</time>
      </trkpt>
      <trkpt lat="44.72768" lon="5.87404">
        <ele>1457.02</ele>
        <time>2015-11-12T12:50:06Z</time>
      </trkpt>
      <trkpt lat="44.72764" lon="5.87422">
        <ele>1455.57</ele>
        <time>2015-11-12T12:50:22Z</time>
      </trkpt>
      <trkpt lat="44.7276" lon="5.8744">
        <ele>1453.17</ele>
        <time>2015-11-12T12:50:40Z</time>
      </trkpt>
      <trkpt lat="44.72756" lon="5.87454">
        <ele>1451.25</ele>
        <time>2015-11-12T12:50:57Z</time>
      </trkpt>
      <trkpt lat="44.72751" lon="5.87469">
        <ele>1448.84</ele>
        <time>2015-11-12T12:51:13Z</time>
      </trkpt>
      <trkpt lat="44.72745" lon="5.87483">
        <ele>1445.96</ele>
        <time>2015-11-12T12:51:29Z</time>
      </trkpt>
      <trkpt lat="44.72738" lon="5.87493">
        <ele>1444.52</ele>
        <time>2015-11-12T12:51:43Z</time>
      </trkpt>
      <trkpt lat="44.72729" lon="5.87508">
        <ele>1442.11</ele>
        <time>2015-11-12T12:51:59Z</time>
      </trkpt>
      <trkpt lat="44.72719" lon="5.87525">
        <ele>1439.71</ele>
        <time>2015-11-12T12:52:17Z</time>
      </trkpt>
      <trkpt lat="44.7271" lon="5.8754">
        <ele>1438.75</ele>
        <time>2015-11-12T12:52:33Z</time>
      </trkpt>
      <trkpt lat="44.72701" lon="5.87555">
        <ele>1438.27</ele>
        <time>2015-11-12T12:52:49Z</time>
      </trkpt>
      <trkpt lat="44.72691" lon="5.87569">
        <ele>1437.31</ele>
        <time>2015-11-12T12:53:06Z</time>
      </trkpt>
      <trkpt lat="44.72684" lon="5.87579">
        <ele>1436.35</ele>
        <time>2015-11-12T12:53:19Z</time>
      </trkpt>
      <trkpt lat="44.72673" lon="5.87595">
        <ele>1434.42</ele>
        <time>2015-11-12T12:53:39Z</time>
      </trkpt>
      <trkpt lat="44.72662" lon="5.87608">
        <ele>1432.5</ele>
        <time>2015-11-12T12:53:56Z</time>
      </trkpt>
      <trkpt lat="44.72652" lon="5.8762">
        <ele>1430.1</ele>
        <time>2015-11-12T12:54:14Z</time>
      </trkpt>
      <trkpt lat="44.72644" lon="5.87629">
        <ele>1428.18</ele>
        <time>2015-11-12T12:54:29Z</time>
      </trkpt>
      <trkpt lat="44.72631" lon="5.87642">
        <ele>1425.77</ele>
        <time>2015-11-12T12:54:47Z</time>
      </trkpt>
      <trkpt lat="44.72619" lon="5.87655">
        <ele>1422.89</ele>
        <time>2015-11-12T12:55:05Z</time>
      </trkpt>
      <trkpt lat="44.72605" lon="5.87667">
        <ele>1420</ele>
        <time>2015-11-12T12:55:25Z</time>
      </trkpt>
      <trkpt lat="44.72598" lon="5.8768">
        <ele>1418.08</ele>
        <time>2015-11-12T12:55:41Z</time>
      </trkpt>
      <trkpt lat="44.72599" lon="5.877">
        <ele>1415.68</ele>
        <time>2015-11-12T12:55:58Z</time>
      </trkpt>
      <trkpt lat="44.72602" lon="5.87715">
        <ele>1412.79</ele>
        <time>2015-11-12T12:56:12Z</time>
      </trkpt>
      <trkpt lat="44.72606" lon="5.87733">
        <ele>1409.91</ele>
        <time>2015-11-12T12:56:28Z</time>
      </trkpt>
      <trkpt lat="44.72609" lon="5.87754">
        <ele>1407.03</ele>
        <time>2015-11-12T12:56:46Z</time>
      </trkpt>
      <trkpt lat="44.7261" lon="5.87767">
        <ele>1405.1</ele>
        <time>2015-11-12T12:56:57Z</time>
      </trkpt>
      <trkpt lat="44.72609" lon="5.87786">
        <ele>1402.7</ele>
        <time>2015-11-12T12:57:13Z</time>
      </trkpt>
      <trkpt lat="44.72608" lon="5.8781">
        <ele>1399.82</ele>
        <time>2015-11-12T12:57:32Z</time>
      </trkpt>
      <trkpt lat="44.72608" lon="5.87833">
        <ele>1397.41</ele>
        <time>2015-11-12T12:57:51Z</time>
      </trkpt>
      <trkpt lat="44.72608" lon="5.87852">
        <ele>1395.49</ele>
        <time>2015-11-12T12:58:08Z</time>
      </trkpt>
      <trkpt lat="44.72612" lon="5.87875">
        <ele>1393.09</ele>
        <time>2015-11-12T12:58:27Z</time>
      </trkpt>
      <trkpt lat="44.72621" lon="5.87897">
        <ele>1391.17</ele>
        <time>2015-11-12T12:58:46Z</time>
      </trkpt>
      <trkpt lat="44.72623" lon="5.87901">
        <ele>1390.68</ele>
        <time>2015-11-12T12:58:50Z</time>
      </trkpt>
      <trkpt lat="44.72633" lon="5.87919">
        <ele>1388.76</ele>
        <time>2015-11-12T12:59:09Z</time>
      </trkpt>
      <trkpt lat="44.72639" lon="5.8793">
        <ele>1387.32</ele>
        <time>2015-11-12T12:59:22Z</time>
      </trkpt>
      <trkpt lat="44.72652" lon="5.87945">
        <ele>1384.92</ele>
        <time>2015-11-12T12:59:39Z</time>
      </trkpt>
      <trkpt lat="44.7266" lon="5.87961">
        <ele>1382.51</ele>
        <time>2015-11-12T12:59:56Z</time>
      </trkpt>
      <trkpt lat="44.72664" lon="5.8798">
        <ele>1379.63</ele>
        <time>2015-11-12T13:00:13Z</time>
      </trkpt>
      <trkpt lat="44.72662" lon="5.87994">
        <ele>1377.23</ele>
        <time>2015-11-12T13:00:29Z</time>
      </trkpt>
      <trkpt lat="44.72656" lon="5.88012">
        <ele>1374.82</ele>
        <time>2015-11-12T13:00:47Z</time>
      </trkpt>
      <trkpt lat="44.72648" lon="5.88025">
        <ele>1372.9</ele>
        <time>2015-11-12T13:01:03Z</time>
      </trkpt>
      <trkpt lat="44.72638" lon="5.88039">
        <ele>1370.5</ele>
        <time>2015-11-12T13:01:20Z</time>
      </trkpt>
      <trkpt lat="44.72627" lon="5.88048">
        <ele>1368.57</ele>
        <time>2015-11-12T13:01:36Z</time>
      </trkpt>
      <trkpt lat="44.72613" lon="5.88056">
        <ele>1365.69</ele>
        <time>2015-11-12T13:01:52Z</time>
      </trkpt>
      <trkpt lat="44.726" lon="5.88062">
        <ele>1363.77</ele>
        <time>2015-11-12T13:02:08Z</time>
      </trkpt>
      <trkpt lat="44.72588" lon="5.88069">
        <ele>1361.84</ele>
        <time>2015-11-12T13:02:24Z</time>
      </trkpt>
      <trkpt lat="44.72585" lon="5.88086">
        <ele>1358.96</ele>
        <time>2015-11-12T13:02:42Z</time>
      </trkpt>
      <trkpt lat="44.72586" lon="5.88089">
        <ele>1358.48</ele>
        <time>2015-11-12T13:02:45Z</time>
      </trkpt>
      <trkpt lat="44.72589" lon="5.88094">
        <ele>1357.52</ele>
        <time>2015-11-12T13:02:50Z</time>
      </trkpt>
      <trkpt lat="44.72595" lon="5.88109">
        <ele>1355.12</ele>
        <time>2015-11-12T13:03:06Z</time>
      </trkpt>
      <trkpt lat="44.7259" lon="5.88126">
        <ele>1352.23</ele>
        <time>2015-11-12T13:03:24Z</time>
      </trkpt>
      <trkpt lat="44.7258" lon="5.88139">
        <ele>1349.83</ele>
        <time>2015-11-12T13:03:41Z</time>
      </trkpt>
      <trkpt lat="44.72567" lon="5.88153">
        <ele>1346.94</ele>
        <time>2015-11-12T13:04:00Z</time>
      </trkpt>
      <trkpt lat="44.72565" lon="5.88156">
        <ele>1346.94</ele>
        <time>2015-11-12T13:04:03Z</time>
      </trkpt>
      <trkpt lat="44.72552" lon="5.88168">
        <ele>1344.54</ele>
        <time>2015-11-12T13:04:20Z</time>
      </trkpt>
      <trkpt lat="44.72544" lon="5.88177">
        <ele>1342.14</ele>
        <time>2015-11-12T13:04:36Z</time>
      </trkpt>
      <trkpt lat="44.72534" lon="5.8819">
        <ele>1339.73</ele>
        <time>2015-11-12T13:04:53Z</time>
      </trkpt>
      <trkpt lat="44.72525" lon="5.88203">
        <ele>1337.33</ele>
        <time>2015-11-12T13:05:09Z</time>
      </trkpt>
      <trkpt lat="44.72515" lon="5.88219">
        <ele>1334.45</ele>
        <time>2015-11-12T13:05:26Z</time>
      </trkpt>
      <trkpt lat="44.7251" lon="5.88231">
        <ele>1331.56</ele>
        <time>2015-11-12T13:05:41Z</time>
      </trkpt>
      <trkpt lat="44.72504" lon="5.88243">
        <ele>1329.64</ele>
        <time>2015-11-12T13:05:58Z</time>
      </trkpt>
      <trkpt lat="44.72504" lon="5.88245">
        <ele>1329.16</ele>
        <time>2015-11-12T13:06:22Z</time>
      </trkpt>
      <trkpt lat="44.72503" lon="5.88244">
        <ele>1329.16</ele>
        <time>2015-11-12T13:06:39Z</time>
      </trkpt>
      <trkpt lat="44.72503" lon="5.88241">
        <ele>1329.16</ele>
        <time>2015-11-12T13:07:02Z</time>
      </trkpt>
      <trkpt lat="44.72503" lon="5.88242">
        <ele>1329.16</ele>
        <time>2015-11-12T13:07:26Z</time>
      </trkpt>
      <trkpt lat="44.72503" lon="5.8824">
        <ele>1329.16</ele>
        <time>2015-11-12T13:07:59Z</time>
      </trkpt>
      <trkpt lat="44.72502" lon="5.88241">
        <ele>1329.16</ele>
        <time>2015-11-12T13:08:27Z</time>
      </trkpt>
      <trkpt lat="44.72502" lon="5.8824">
        <ele>1329.16</ele>
        <time>2015-11-12T13:08:48Z</time>
      </trkpt>
      <trkpt lat="44.72503" lon="5.88239">
        <ele>1329.16</ele>
        <time>2015-11-12T13:09:11Z</time>
      </trkpt>
      <trkpt lat="44.72502" lon="5.88239">
        <ele>1329.16</ele>
        <time>2015-11-12T13:09:44Z</time>
      </trkpt>
      <trkpt lat="44.72501" lon="5.8824">
        <ele>1329.16</ele>
        <time>2015-11-12T13:10:13Z</time>
      </trkpt>
      <trkpt lat="44.72501" lon="5.8824">
        <ele>1329.16</ele>
        <time>2015-11-12T13:10:42Z</time>
      </trkpt>
      <trkpt lat="44.72502" lon="5.88241">
        <ele>1329.16</ele>
        <time>2015-11-12T13:11:08Z</time>
      </trkpt>
      <trkpt lat="44.72503" lon="5.88243">
        <ele>1329.16</ele>
        <time>2015-11-12T13:11:32Z</time>
      </trkpt>
      <trkpt lat="44.72502" lon="5.88242">
        <ele>1329.16</ele>
        <time>2015-11-12T13:11:54Z</time>
      </trkpt>
      <trkpt lat="44.72499" lon="5.88251">
        <ele>1328.2</ele>
        <time>2015-11-12T13:12:08Z</time>
      </trkpt>
      <trkpt lat="44.72492" lon="5.8826">
        <ele>1326.28</ele>
        <time>2015-11-12T13:12:21Z</time>
      </trkpt>
      <trkpt lat="44.72482" lon="5.88264">
        <ele>1324.83</ele>
        <time>2015-11-12T13:12:35Z</time>
      </trkpt>
      <trkpt lat="44.72471" lon="5.88272">
        <ele>1322.43</ele>
        <time>2015-11-12T13:12:50Z</time>
      </trkpt>
      <trkpt lat="44.72465" lon="5.88288">
        <ele>1320.51</ele>
        <time>2015-11-12T13:13:07Z</time>
      </trkpt>
      <trkpt lat="44.72463" lon="5.88308">
        <ele>1318.59</ele>
        <time>2015-11-12T13:13:25Z</time>
      </trkpt>
      <trkpt lat="44.72461" lon="5.8833">
        <ele>1316.18</ele>
        <time>2015-11-12T13:13:44Z</time>
      </trkpt>
      <trkpt lat="44.72454" lon="5.88345">
        <ele>1312.82</ele>
        <time>2015-11-12T13:14:01Z</time>
      </trkpt>
      <trkpt lat="44.7244" lon="5.88355">
        <ele>1310.41</ele>
        <time>2015-11-12T13:14:18Z</time>
      </trkpt>
      <trkpt lat="44.72429" lon="5.88363">
        <ele>1308.97</ele>
        <time>2015-11-12T13:14:33Z</time>
      </trkpt>
      <trkpt lat="44.72427" lon="5.88364">
        <ele>1308.49</ele>
        <time>2015-11-12T13:14:35Z</time>
      </trkpt>
      <trkpt lat="44.72413" lon="5.88373">
        <ele>1306.09</ele>
        <time>2015-11-12T13:14:52Z</time>
      </trkpt>
      <trkpt lat="44.72416" lon="5.88392">
        <ele>1303.2</ele>
        <time>2015-11-12T13:15:11Z</time>
      </trkpt>
      <trkpt lat="44.72428" lon="5.88401">
        <ele>1302.24</ele>
        <time>2015-11-12T13:15:26Z</time>
      </trkpt>
      <trkpt lat="44.72444" lon="5.88413">
        <ele>1301.76</ele>
        <time>2015-11-12T13:15:45Z</time>
      </trkpt>
      <trkpt lat="44.72456" lon="5.88423">
        <ele>1301.76</ele>
        <time>2015-11-12T13:16:00Z</time>
      </trkpt>
      <trkpt lat="44.72471" lon="5.88438">
        <ele>1300.8</ele>
        <time>2015-11-12T13:16:20Z</time>
      </trkpt>
      <trkpt lat="44.72482" lon="5.88451">
        <ele>1299.36</ele>
        <time>2015-11-12T13:16:37Z</time>
      </trkpt>
      <trkpt lat="44.72493" lon="5.88467">
        <ele>1296.96</ele>
        <time>2015-11-12T13:16:55Z</time>
      </trkpt>
      <trkpt lat="44.72497" lon="5.88481">
        <ele>1295.03</ele>
        <time>2015-11-12T13:17:09Z</time>
      </trkpt>
      <trkpt lat="44.72502" lon="5.88497">
        <ele>1292.63</ele>
        <time>2015-11-12T13:17:24Z</time>
      </trkpt>
      <trkpt lat="44.72509" lon="5.88509">
        <ele>1290.23</ele>
        <time>2015-11-12T13:17:40Z</time>
      </trkpt>
      <trkpt lat="44.72521" lon="5.8852">
        <ele>1287.82</ele>
        <time>2015-11-12T13:17:58Z</time>
      </trkpt>
      <trkpt lat="44.72535" lon="5.88527">
        <ele>1285.42</ele>
        <time>2015-11-12T13:18:16Z</time>
      </trkpt>
      <trkpt lat="44.72536" lon="5.88527">
        <ele>1284.94</ele>
        <time>2015-11-12T13:18:18Z</time>
      </trkpt>
      <trkpt lat="44.72553" lon="5.88528">
        <ele>1283.02</ele>
        <time>2015-11-12T13:18:36Z</time>
      </trkpt>
      <trkpt lat="44.72568" lon="5.88524">
        <ele>1281.09</ele>
        <time>2015-11-12T13:18:53Z</time>
      </trkpt>
      <trkpt lat="44.72581" lon="5.88524">
        <ele>1279.65</ele>
        <time>2015-11-12T13:19:08Z</time>
      </trkpt>
      <trkpt lat="44.72593" lon="5.88524">
        <ele>1278.21</ele>
        <time>2015-11-12T13:19:22Z</time>
      </trkpt>
      <trkpt lat="44.72608" lon="5.88522">
        <ele>1278.21</ele>
        <time>2015-11-12T13:19:38Z</time>
      </trkpt>
      <trkpt lat="44.72624" lon="5.8852">
        <ele>1277.73</ele>
        <time>2015-11-12T13:19:56Z</time>
      </trkpt>
      <trkpt lat="44.72638" lon="5.88516">
        <ele>1276.77</ele>
        <time>2015-11-12T13:20:13Z</time>
      </trkpt>
      <trkpt lat="44.72652" lon="5.88515">
        <ele>1275.33</ele>
        <time>2015-11-12T13:20:30Z</time>
      </trkpt>
      <trkpt lat="44.72668" lon="5.88527">
        <ele>1272.44</ele>
        <time>2015-11-12T13:20:49Z</time>
      </trkpt>
      <trkpt lat="44.72673" lon="5.88533">
        <ele>1271.96</ele>
        <time>2015-11-12T13:20:56Z</time>
      </trkpt>
      <trkpt lat="44.72686" lon="5.88549">
        <ele>1269.56</ele>
        <time>2015-11-12T13:21:16Z</time>
      </trkpt>
      <trkpt lat="44.72701" lon="5.88555">
        <ele>1268.6</ele>
        <time>2015-11-12T13:21:34Z</time>
      </trkpt>
      <trkpt lat="44.72707" lon="5.88557">
        <ele>1268.12</ele>
        <time>2015-11-12T13:21:41Z</time>
      </trkpt>
      <trkpt lat="44.72722" lon="5.8856">
        <ele>1267.16</ele>
        <time>2015-11-12T13:21:58Z</time>
      </trkpt>
      <trkpt lat="44.72735" lon="5.88564">
        <ele>1266.19</ele>
        <time>2015-11-12T13:22:15Z</time>
      </trkpt>
      <trkpt lat="44.7275" lon="5.88576">
        <ele>1265.71</ele>
        <time>2015-11-12T13:22:33Z</time>
      </trkpt>
      <trkpt lat="44.72763" lon="5.8859">
        <ele>1264.75</ele>
        <time>2015-11-12T13:22:51Z</time>
      </trkpt>
      <trkpt lat="44.72776" lon="5.88603">
        <ele>1264.27</ele>
        <time>2015-11-12T13:23:08Z</time>
      </trkpt>
      <trkpt lat="44.72783" lon="5.88622">
        <ele>1264.27</ele>
        <time>2015-11-12T13:23:26Z</time>
      </trkpt>
      <trkpt lat="44.72787" lon="5.88642">
        <ele>1263.79</ele>
        <time>2015-11-12T13:23:42Z</time>
      </trkpt>
      <trkpt lat="44.72789" lon="5.88664">
        <ele>1263.31</ele>
        <time>2015-11-12T13:24:02Z</time>
      </trkpt>
      <trkpt lat="44.72798" lon="5.88673">
        <ele>1263.31</ele>
        <time>2015-11-12T13:24:16Z</time>
      </trkpt>
      <trkpt lat="44.72809" lon="5.88683">
        <ele>1263.31</ele>
        <time>2015-11-12T13:24:31Z</time>
      </trkpt>
      <trkpt lat="44.7282" lon="5.88691">
        <ele>1262.83</ele>
        <time>2015-11-12T13:24:46Z</time>
      </trkpt>
      <trkpt lat="44.72829" lon="5.88697">
        <ele>1263.31</ele>
        <time>2015-11-12T13:25:00Z</time>
      </trkpt>
      <trkpt lat="44.72836" lon="5.88704">
        <ele>1262.83</ele>
        <time>2015-11-12T13:25:10Z</time>
      </trkpt>
      <trkpt lat="44.72846" lon="5.88711">
        <ele>1262.83</ele>
        <time>2015-11-12T13:25:22Z</time>
      </trkpt>
      <trkpt lat="44.72857" lon="5.88719">
        <ele>1263.31</ele>
        <time>2015-11-12T13:25:35Z</time>
      </trkpt>
      <trkpt lat="44.72869" lon="5.88729">
        <ele>1263.31</ele>
        <time>2015-11-12T13:25:53Z</time>
      </trkpt>
      <trkpt lat="44.7288" lon="5.88732">
        <ele>1262.83</ele>
        <time>2015-11-12T13:26:07Z</time>
      </trkpt>
    </trkseg>
  </trk>
</gpx>